BA2715 / G-EUYI 7700 Squawk Report (19th of October, 2017)

Aircraft A320 Reg No. G-EUYI Age 7 years old
Model A320 Jet engines 2 First flight 14-05-10
Registered 03-06-10 Rollout 05-10 Delivered 03-06-10
Construction No. 4306 Line No. N/A Series 232
ADSHEX 406250 Airline name British Airways Owner N/A
Airfield based Heathrow~Gtr London~G First tracked 2011-04-01 16:05:02

Flight history for G-EUYI

Route Flight No Date Playback
Schwechat (VIE) - Heathrow (LHR) BA703 2017-11-22 16:29:00
Heathrow (LHR) - Schwechat (VIE) BA702 2017-11-22 16:02:00
Barcelona (BCN) - Heathrow (LHR) BA473 2017-11-22 11:35:00
Heathrow (LHR) - Barcelona (BCN) BA472 2017-11-22 09:13:00
Gibraltar (GIB) - Heathrow (LHR) BA491 2017-11-21 18:50:00
Heathrow (LHR) - Gibraltar (GIB) BA490 2017-11-21 16:27:00
Luxembourg (LUX) - Heathrow (LHR) BA417 2017-11-21 12:45:00
Heathrow (LHR) - Luxembourg (LUX) BA416 2017-11-21 10:10:00
Václav Havel Airport Prague (PRG) - Heathrow (LHR) BA857 2017-11-20 19:48:00
Heathrow (LHR) - Václav Havel Airport Prague (PRG) BA856 2017-11-20 16:28:00
Lisboa (LIS) - Heathrow (LHR) BA501 2017-11-20 14:59:00
Heathrow (LHR) - Lisboa (LIS) BA500 2017-11-20 09:36:00
Bilbao (BIO) - Heathrow (LHR) BA469 2017-11-19 20:41:00
Heathrow (LHR) - Bilbao (BIO) BA468 2017-11-19 17:35:00
Schwechat (VIE) - Heathrow (LHR) BA701 2017-11-19 16:06:00
Heathrow (LHR) - Schwechat (VIE) BA700 2017-11-19 12:49:00
Václav Havel Airport Prague (PRG) - Heathrow (LHR) BA853 2017-11-19 09:50:00
Heathrow (LHR) - Václav Havel Airport Prague (PRG) BA856 2017-11-18 17:37:00
Schwechat (VIE) - Heathrow (LHR) BA697 2017-11-18 15:34:00
Heathrow (LHR) - Schwechat (VIE) BA696 2017-11-18 09:56:00
Time Lat Lon Altitude Heading Speed Vertical Rate
2017-10-19 14:15:00 GMT 44.84517 -0.69174 450 226 131 -704
2017-10-19 14:14:53 GMT 44.84798 -0.68769 525 225 132 -640
2017-10-19 14:14:44 GMT 44.85214 -0.68181 650 226 132 -704
2017-10-19 14:14:33 GMT 44.85662 -0.67532 750 226 130 -704
2017-10-19 14:14:23 GMT 44.86084 -0.66932 875 226 132 -832
2017-10-19 14:14:13 GMT 44.86537 -0.66286 1,000 226 130 -640
2017-10-19 14:14:02 GMT 44.86968 -0.65670 1,125 226 129 -704
2017-10-19 14:13:53 GMT 44.87389 -0.65061 1,225 226 130 -704
2017-10-19 14:13:43 GMT 44.87822 -0.64444 1,350 226 131 -704
2017-10-19 14:13:40 GMT 44.87976 -0.64223 1,400 226 131 -704
2017-10-19 14:13:32 GMT 44.88269 -0.63808 1,450 226 133 -704
2017-10-19 14:13:25 GMT 44.88548 -0.63406 1,525 226 137 -832
2017-10-19 14:13:22 GMT 44.88716 -0.63165 1,600 226 139 -1024
2017-10-19 14:13:18 GMT 44.88863 -0.62956 1,650 226 141 -1088
2017-10-19 14:13:12 GMT 44.89178 -0.62504 1,750 226 145 -704
2017-10-19 14:13:08 GMT 44.89371 -0.62230 1,775 226 152 -640
2017-10-19 14:13:01 GMT 44.89679 -0.61785 1,850 226 157 -768
2017-10-19 14:12:57 GMT 44.89884 -0.61490 1,900 226 158 -832
2017-10-19 14:12:51 GMT 44.90245 -0.60968 2,000 226 160 -832
2017-10-19 14:12:48 GMT 44.90443 -0.60686 2,050 226 160 -896
2017-10-19 14:12:41 GMT 44.90726 -0.60281 2,125 226 160 -896
2017-10-19 14:12:37 GMT 44.90946 -0.59969 2,200 226 161 -832
2017-10-19 14:12:31 GMT 44.91248 -0.59535 2,275 226 161 -960
2017-10-19 14:12:29 GMT 44.91341 -0.59400 2,300 226 161 -960
2017-10-19 14:12:26 GMT 44.91499 -0.59176 2,350 226 161 -1024
2017-10-19 14:12:22 GMT 44.91792 -0.58757 2,425 226 161 -960
2017-10-19 14:12:20 GMT 44.91875 -0.58640 2,450 226 161 -960
2017-10-19 14:12:15 GMT 44.92077 -0.58348 2,525 226 161 -960
2017-10-19 14:12:09 GMT 44.92424 -0.57855 2,625 226 161 -1024
2017-10-19 14:12:05 GMT 44.92621 -0.57564 2,675 226 161 -896
2017-10-19 14:12:01 GMT 44.92850 -0.57229 2,750 227 161 -896
2017-10-19 14:11:59 GMT 44.92957 -0.57082 2,775 227 161 -832
2017-10-19 14:11:54 GMT 44.93180 -0.56747 2,850 227 162 -832
2017-10-19 14:11:51 GMT 44.93376 -0.56449 2,900 228 162 -768
2017-10-19 14:11:49 GMT 44.93500 -0.56266 2,925 228 162 -768
2017-10-19 14:11:45 GMT 44.93701 -0.55952 2,975 228 162 -768
2017-10-19 14:11:41 GMT 44.93874 -0.55682 3,025 229 163 -640
2017-10-19 14:11:38 GMT 44.94003 -0.55474 3,050 230 163 -512
2017-10-19 14:11:34 GMT 44.94223 -0.55099 3,075 231 162 -320
2017-10-19 14:11:30 GMT 44.94388 -0.54821 3,100 232 163 -128
2017-10-19 14:11:28 GMT 44.94507 -0.54597 3,100 234 165 -128
2017-10-19 14:11:24 GMT 44.94702 -0.54215 3,100 236 166 -64
2017-10-19 14:11:20 GMT 44.94832 -0.53944 3,100 236 168 0
2017-10-19 14:11:17 GMT 44.94978 -0.53656 3,100 233 171 64
2017-10-19 14:11:13 GMT 44.95200 -0.53304 3,100 218 177 320
2017-10-19 14:11:10 GMT 44.95382 -0.53110 3,100 211 179 256
2017-10-19 14:11:07 GMT 44.95624 -0.52942 3,075 201 183 -64
2017-10-19 14:11:02 GMT 44.95967 -0.52800 3,100 193 185 -64
2017-10-19 14:11:00 GMT 44.96220 -0.52721 3,100 193 186 -64
2017-10-19 14:10:56 GMT 44.96503 -0.52630 3,100 194 187 -64
2017-10-19 14:10:52 GMT 44.96841 -0.52512 3,100 193 189 64
2017-10-19 14:10:49 GMT 44.97100 -0.52433 3,100 189 193 0
2017-10-19 14:10:45 GMT 44.97514 -0.52388 3,100 179 199 -64
2017-10-19 14:10:40 GMT 44.98036 -0.52414 3,100 175 204 0
2017-10-19 14:10:36 GMT 44.98394 -0.52453 3,100 173 209 0
2017-10-19 14:10:31 GMT 44.98801 -0.52525 3,100 170 213 128
2017-10-19 14:10:29 GMT 44.98998 -0.52577 3,075 167 215 64
2017-10-19 14:10:24 GMT 44.99446 -0.52748 3,075 160 221 64
2017-10-19 14:10:20 GMT 44.99808 -0.52976 3,075 151 227 64
2017-10-19 14:10:18 GMT 45.00028 -0.53153 3,075 147 230 64
2017-10-19 14:10:14 GMT 45.00403 -0.53558 3,075 140 233 64
2017-10-19 14:10:09 GMT 45.00787 -0.54134 3,075 126 234 0
2017-10-19 14:10:04 GMT 45.01047 -0.54664 3,075 120 235 -64
2017-10-19 14:09:58 GMT 45.01360 -0.55442 3,075 118 235 0
2017-10-19 14:09:54 GMT 45.01620 -0.56117 3,075 118 236 0
2017-10-19 14:09:48 GMT 45.01974 -0.57042 3,075 118 236 -64
2017-10-19 14:09:44 GMT 45.02137 -0.57471 3,100 118 236 0
2017-10-19 14:09:38 GMT 45.02439 -0.58261 3,100 118 235 64
2017-10-19 14:09:33 GMT 45.02696 -0.58934 3,075 118 234 0
2017-10-19 14:09:27 GMT 45.02993 -0.59715 3,075 118 235 -64
2017-10-19 14:09:22 GMT 45.03232 -0.60340 3,100 117 235 -64
2017-10-19 14:09:18 GMT 45.03487 -0.61021 3,100 117 235 -64
2017-10-19 14:09:12 GMT 45.03758 -0.61752 3,100 118 235 -128
2017-10-19 14:09:07 GMT 45.04005 -0.62406 3,100 118 235 0
2017-10-19 14:08:59 GMT 45.04404 -0.63466 3,100 118 239 64
2017-10-19 14:08:56 GMT 45.04646 -0.64094 3,100 118 238 64
2017-10-19 14:08:52 GMT 45.04823 -0.64565 3,100 118 243 192
2017-10-19 14:08:47 GMT 45.05118 -0.65329 3,075 118 250 0
2017-10-19 14:08:45 GMT 45.05172 -0.65469 3,075 118 251 -64
2017-10-19 14:08:34 GMT 45.05800 -0.67151 3,075 118 263 0
2017-10-19 14:08:31 GMT 45.05963 -0.67579 3,075 118 265 64
2017-10-19 14:08:26 GMT 45.06235 -0.68285 3,075 118 267 0
2017-10-19 14:08:21 GMT 45.06615 -0.69241 3,075 118 268 0
2017-10-19 14:08:16 GMT 45.06853 -0.69857 3,075 118 268 -64
2017-10-19 14:08:12 GMT 45.07059 -0.70450 3,075 118 269 0
2017-10-19 14:08:10 GMT 45.07173 -0.70757 3,075 118 269 0
2017-10-19 14:08:05 GMT 45.07467 -0.71538 3,075 118 269 -128
2017-10-19 14:07:59 GMT 45.07798 -0.72409 3,100 118 269 -128
2017-10-19 14:07:55 GMT 45.08066 -0.73125 3,100 117 269 0
2017-10-19 14:07:52 GMT 45.08208 -0.73497 3,100 118 269 0
2017-10-19 14:07:49 GMT 45.08426 -0.74030 3,100 117 270 -64
2017-10-19 14:07:44 GMT 45.08730 -0.74884 3,100 118 283 -64
2017-10-19 14:07:39 GMT 45.09036 -0.75685 3,100 118 282 -64
2017-10-19 14:07:34 GMT 45.09334 -0.76476 3,100 118 287 0
2017-10-19 14:07:28 GMT 45.09692 -0.77400 3,100 118 293 -64
2017-10-19 14:07:22 GMT 45.10121 -0.78533 3,100 118 302 0
2017-10-19 14:07:18 GMT 45.10405 -0.79239 3,100 118 307 0
2017-10-19 14:07:12 GMT 45.10771 -0.80239 3,100 118 315 0
2017-10-19 14:07:08 GMT 45.11066 -0.80997 3,100 118 324 64
2017-10-19 14:07:02 GMT 45.11475 -0.82123 3,075 117 349 -128
2017-10-19 14:06:58 GMT 45.11843 -0.83047 3,075 118 338 128
2017-10-19 14:06:50 GMT 45.12396 -0.84497 3,075 118 351 0
2017-10-19 14:06:46 GMT 45.12666 -0.85229 3,075 117 350 -64
2017-10-19 14:06:41 GMT 45.13002 -0.86162 3,100 117 350 -128
2017-10-19 14:06:38 GMT 45.13244 -0.86812 3,100 118 351 0
2017-10-19 14:06:35 GMT 45.13486 -0.87455 3,100 117 349 -192
2017-10-19 14:06:35 GMT 45.13486 -0.87455 3,100 117 349 -192
2017-10-19 14:06:28 GMT 45.14003 -0.88842 3,125 117 348 -576
2017-10-19 14:06:25 GMT 45.14305 -0.89611 3,150 118 348 -640
2017-10-19 14:06:17 GMT 45.14882 -0.91121 3,275 118 348 -960
2017-10-19 14:06:14 GMT 45.15065 -0.91599 3,300 118 348 -960
2017-10-19 14:06:05 GMT 45.15777 -0.93504 3,450 117 347 -960
2017-10-19 14:06:02 GMT 45.16003 -0.94090 3,500 118 351 -1088
2017-10-19 14:05:54 GMT 45.16577 -0.95675 3,600 118 348 -832
2017-10-19 14:05:44 GMT 45.17331 -0.97671 3,750 118 348 -896
2017-10-19 14:05:39 GMT 45.17778 -0.98810 3,850 118 351 -1088
2017-10-19 14:05:34 GMT 45.18127 -0.99747 3,925 118 353 -1024
2017-10-19 14:05:27 GMT 45.18728 -1.01342 4,075 117 354 -960
2017-10-19 14:05:23 GMT 45.18942 -1.01957 4,100 117 354 -960
2017-10-19 14:05:13 GMT 45.19696 -1.03975 4,275 117 356 -960
2017-10-19 14:05:03 GMT 45.20548 -1.06186 4,425 117 356 -832
2017-10-19 14:04:58 GMT 45.20869 -1.07110 4,500 117 356 -896
2017-10-19 14:04:52 GMT 45.21470 -1.08678 4,600 117 359 -1024
2017-10-19 14:04:41 GMT 45.22215 -1.10681 4,750 117 360 -960
2017-10-19 14:04:31 GMT 45.23011 -1.12864 4,925 117 365 -960
2017-10-19 14:04:22 GMT 45.23723 -1.14713 5,075 117 366 -960
2017-10-19 14:04:19 GMT 45.23909 -1.15222 5,100 117 366 -960
2017-10-19 14:04:11 GMT 45.24580 -1.17031 5,225 117 369 -896
2017-10-19 14:04:08 GMT 45.24770 -1.17586 5,275 117 369 -960
2017-10-19 14:04:00 GMT 45.25520 -1.19604 5,425 117 370 -960
2017-10-19 14:03:58 GMT 45.25603 -1.19803 5,450 117 370 -960
2017-10-19 14:03:51 GMT 45.26176 -1.21325 5,550 117 373 -896
2017-10-19 14:03:47 GMT 45.26465 -1.22096 5,625 117 370 -1024
2017-10-19 14:03:36 GMT 45.27329 -1.24446 5,800 117 371 -960
2017-10-19 14:03:26 GMT 45.28198 -1.26794 5,975 117 373 -896
2017-10-19 14:03:15 GMT 45.29049 -1.29069 6,150 117 373 -896
2017-10-19 14:03:06 GMT 45.29761 -1.30992 6,275 117 373 -896
2017-10-19 14:03:04 GMT 45.29970 -1.31494 6,300 117 373 -896
2017-10-19 14:02:59 GMT 45.30386 -1.32666 6,375 117 374 -960
2017-10-19 14:02:53 GMT 45.30822 -1.33846 6,450 117 374 -960
2017-10-19 14:02:42 GMT 45.31677 -1.36152 6,625 117 375 -960
2017-10-19 14:02:30 GMT 45.32652 -1.38774 6,825 117 377 -1024
2017-10-19 14:02:21 GMT 45.33448 -1.40933 7,000 117 378 -1024
2017-10-19 14:02:10 GMT 45.34332 -1.43274 7,175 117 378 -960
2017-10-19 14:01:59 GMT 45.35217 -1.45669 7,350 117 378 -960
2017-10-19 14:01:54 GMT 45.35608 -1.46721 7,425 117 376 -960
2017-10-19 14:01:48 GMT 45.36076 -1.48002 7,525 117 377 -960
2017-10-19 14:01:45 GMT 45.36401 -1.48878 7,600 117 377 -960
2017-10-19 14:01:37 GMT 45.36983 -1.50460 7,700 117 376 -960
2017-10-19 14:01:27 GMT 45.37820 -1.52730 7,875 117 378 -1024
2017-10-19 14:01:16 GMT 45.38759 -1.55269 8,075 117 380 -1152
2017-10-19 14:01:04 GMT 45.39648 -1.57741 8,300 117 381 -1408
2017-10-19 14:00:54 GMT 45.40507 -1.60113 8,550 117 382 -1472
2017-10-19 14:00:43 GMT 45.41382 -1.62513 8,800 117 384 -1600
2017-10-19 14:00:32 GMT 45.42238 -1.64873 9,100 117 389 -1728
2017-10-19 14:00:21 GMT 45.43187 -1.67461 9,400 117 394 -1856
2017-10-19 14:00:10 GMT 45.44127 -1.70060 9,750 117 394 -1792
2017-10-19 13:59:59 GMT 45.44993 -1.72452 10,075 117 392 -1664
2017-10-19 13:59:51 GMT 45.45703 -1.74415 10,300 117 389 -1728
2017-10-19 13:59:48 GMT 45.45918 -1.74957 10,375 117 389 -1984
2017-10-19 13:59:38 GMT 45.46797 -1.77410 10,750 117 394 -2880
2017-10-19 13:59:30 GMT 45.47423 -1.79151 11,150 117 400 -4096
2017-10-19 13:59:26 GMT 45.47813 -1.80208 11,425 117 400 -4224
2017-10-19 13:59:15 GMT 45.48697 -1.82648 12,250 116 402 -4800
2017-10-19 13:59:10 GMT 45.49164 -1.83934 12,675 116 404 -4672
2017-10-19 13:59:04 GMT 45.49626 -1.85329 13,100 112 406 -5120
2017-10-19 13:59:00 GMT 45.49927 -1.86366 13,450 109 408 -5312
2017-10-19 13:58:53 GMT 45.50258 -1.88034 14,000 100 414 -4608
2017-10-19 13:58:49 GMT 45.50397 -1.89092 14,300 98 415 -4480
2017-10-19 13:58:42 GMT 45.50514 -1.91129 14,825 91 421 -4928
2017-10-19 13:58:39 GMT 45.50505 -1.92019 15,100 87 423 -5696
2017-10-19 13:58:31 GMT 45.50418 -1.94125 15,825 85 421 -6400
2017-10-19 13:58:29 GMT 45.50374 -1.94840 16,075 85 419 -6400
2017-10-19 13:58:21 GMT 45.50244 -1.97037 16,875 85 418 -5120
2017-10-19 13:58:18 GMT 45.50194 -1.97859 17,125 85 420 -4224
2017-10-19 13:58:10 GMT 45.50075 -1.99964 17,650 85 423 -4672
2017-10-19 13:58:08 GMT 45.50047 -2.00514 17,800 85 423 -4736
2017-10-19 13:58:01 GMT 45.49932 -2.02570 18,375 85 424 -4736
2017-10-19 13:57:58 GMT 45.49887 -2.03411 18,600 85 426 -4416
2017-10-19 13:57:48 GMT 45.49745 -2.05994 19,225 85 432 -3264
2017-10-19 13:57:37 GMT 45.49578 -2.09129 19,750 85 442 -3072
2017-10-19 13:57:30 GMT 45.49466 -2.11460 20,200 86 449 -4096
2017-10-19 13:57:26 GMT 45.49429 -2.12363 20,400 86 450 -4608
2017-10-19 13:57:22 GMT 45.49370 -2.13769 20,750 86 452 -4672
2017-10-19 13:57:19 GMT 45.49345 -2.14441 20,925 86 453 -4480
2017-10-19 13:57:16 GMT 45.49294 -2.15633 21,200 86 455 -4480
2017-10-19 13:57:05 GMT 45.49159 -2.18628 22,050 85 455 -6272
2017-10-19 13:57:03 GMT 45.49113 -2.19400 22,325 81 452 -5760
2017-10-19 13:56:54 GMT 45.48912 -2.21944 23,175 81 453 -5568
2017-10-19 13:56:45 GMT 45.48505 -2.24683 23,375 81 453 -5568
2017-10-19 13:56:43 GMT 45.48442 -2.25092 24,025 74 458 -3840
2017-10-19 13:56:38 GMT 45.48001 -2.26999 24,450 70 464 -4416
2017-10-19 13:56:33 GMT 45.47685 -2.28136 24,750 67 465 -5248
2017-10-19 13:56:24 GMT 45.46832 -2.30740 25,600 61 463 -6080
2017-10-19 13:56:21 GMT 45.46636 -2.31269 25,800 60 462 -6208
2017-10-19 13:56:15 GMT 45.45789 -2.33238 26,600 53 454 -5888
2017-10-19 13:56:13 GMT 45.45717 -2.33381 26,650 50 451 -5568
2017-10-19 13:56:11 GMT 45.45412 -2.34009 26,900 53 454 -5888
2017-10-19 13:56:06 GMT 45.44865 -2.35003 27,300 50 452 -5440
2017-10-19 13:56:03 GMT 45.44346 -2.35871 27,625 48 450 -4800
2017-10-19 13:56:00 GMT 45.43964 -2.36474 27,825 45 451 -3840
2017-10-19 13:55:53 GMT 45.42851 -2.37998 28,275 41 453 -3264
2017-10-19 13:55:49 GMT 45.42321 -2.38671 28,475 39 454 -3584
2017-10-19 13:55:43 GMT 45.41180 -2.39904 28,875 34 454 -4288
2017-10-19 13:55:37 GMT 45.40351 -2.40701 29,225 31 453 -4672
2017-10-19 13:55:32 GMT 45.39318 -2.41525 29,650 28 451 -5056
2017-10-19 13:55:26 GMT 45.38329 -2.42248 30,125 25 449 -5376
2017-10-19 13:55:24 GMT 45.37949 -2.42510 30,300 24 448 -5440
2017-10-19 13:55:21 GMT 45.37189 -2.42955 30,650 22 445 -5568
2017-10-19 13:55:19 GMT 45.37000 -2.43079 30,750 21 444 -5568
2017-10-19 13:55:16 GMT 45.36311 -2.43448 31,075 21 441 -5760
2017-10-19 13:55:11 GMT 45.35403 -2.43957 31,525 21 439 -5824
2017-10-19 13:55:07 GMT 45.34598 -2.44426 31,950 21 438 -5888
2017-10-19 13:55:03 GMT 45.33904 -2.44841 32,300 22 434 -5952
2017-10-19 13:55:01 GMT 45.33518 -2.45042 32,500 22 434 -5632
2017-10-19 13:54:58 GMT 45.33015 -2.45364 32,775 22 434 -5632
2017-10-19 13:54:55 GMT 45.32387 -2.45741 33,075 22 433 -4480
2017-10-19 13:54:53 GMT 45.32002 -2.45963 33,200 22 433 -4224
2017-10-19 13:54:50 GMT 45.31302 -2.46382 33,450 22 438 -2752
2017-10-19 13:54:42 GMT 45.30059 -2.47139 33,825 22 437 -2880
2017-10-19 13:54:39 GMT 45.29498 -2.47454 33,950 22 438 -2688
2017-10-19 13:54:32 GMT 45.28192 -2.48237 34,250 23 440 -2304
2017-10-19 13:54:29 GMT 45.27480 -2.48683 34,400 23 440 -2304
2017-10-19 13:54:21 GMT 45.26172 -2.49490 34,650 23 441 -2432
2017-10-19 13:54:19 GMT 45.25799 -2.49704 34,750 23 442 -2560
2017-10-19 13:54:11 GMT 45.24151 -2.50743 35,100 24 443 -2240
2017-10-19 13:54:09 GMT 45.23813 -2.50972 35,175 24 444 -2304
2017-10-19 13:54:01 GMT 45.22311 -2.51914 35,500 24 445 -3136
2017-10-19 13:53:59 GMT 45.21977 -2.52129 35,575 24 444 -4032
2017-10-19 13:53:49 GMT 45.20120 -2.53342 36,250 24 438 -4352
2017-10-19 13:53:38 GMT 45.18178 -2.54589 36,975 22 430 -3648
2017-10-19 13:53:29 GMT 45.16255 -2.55596 37,525 16 421 -2432
2017-10-19 13:53:25 GMT 45.15618 -2.55861 37,650 15 419 -2176
2017-10-19 13:53:18 GMT 45.14417 -2.56256 37,850 11 415 -1280
2017-10-19 13:53:16 GMT 45.14076 -2.56348 37,900 10 415 -960
2017-10-19 13:53:07 GMT 45.12220 -2.56718 38,000 6 414 -192
2017-10-19 13:53:05 GMT 45.11843 -2.56779 38,000 7 414 -64
2017-10-19 13:52:57 GMT 45.10325 -2.57047 38,025 7 413 0
2017-10-19 13:52:55 GMT 45.10062 -2.57093 38,025 6 413 0
2017-10-19 13:52:47 GMT 45.08409 -2.57374 38,025 6 413 0
2017-10-19 13:52:43 GMT 45.07825 -2.57475 38,025 6 413 0
2017-10-19 13:52:36 GMT 45.06349 -2.57747 38,025 6 413 -64
2017-10-19 13:52:34 GMT 45.06084 -2.57770 38,025 6 413 -64
2017-10-19 13:52:26 GMT 45.04492 -2.58045 38,025 6 412 0
2017-10-19 13:52:24 GMT 45.04152 -2.58100 38,025 6 412 64
2017-10-19 13:52:15 GMT 45.02490 -2.58388 38,025 6 412 0
2017-10-19 13:52:13 GMT 45.02151 -2.58447 38,025 6 412 0
2017-10-19 13:52:05 GMT 45.00642 -2.58708 38,000 6 411 0
2017-10-19 13:52:01 GMT 44.99888 -2.58835 38,025 6 411 64
2017-10-19 13:51:55 GMT 44.98567 -2.59062 38,000 6 411 0
2017-10-19 13:51:51 GMT 44.97854 -2.59204 38,000 6 411 0
2017-10-19 13:51:45 GMT 44.96797 -2.59364 38,000 7 410 0
2017-10-19 13:51:41 GMT 44.96043 -2.59498 38,000 7 410 0
2017-10-19 13:51:34 GMT 44.94731 -2.59722 38,000 7 410 64
2017-10-19 13:51:29 GMT 44.93715 -2.59894 38,000 7 409 64
2017-10-19 13:51:25 GMT 44.92873 -2.60034 38,000 7 409 0
2017-10-19 13:51:20 GMT 44.92177 -2.60160 38,000 7 409 0
2017-10-19 13:51:15 GMT 44.91202 -2.60330 38,000 7 409 0
2017-10-19 13:51:13 GMT 44.90862 -2.60389 38,000 7 408 0
2017-10-19 13:51:09 GMT 44.89778 -2.60572 38,000 6 407 0
2017-10-19 13:51:06 GMT 44.89554 -2.60611 38,000 6 407 0
2017-10-19 13:51:04 GMT 44.88995 -2.60704 38,000 6 407 0
2017-10-19 13:50:59 GMT 44.88208 -2.60840 38,000 6 406 0
2017-10-19 13:50:56 GMT 44.87650 -2.60952 38,000 6 406 0
2017-10-19 13:50:54 GMT 44.86940 -2.61056 38,000 6 406 64
2017-10-19 13:50:50 GMT 44.86230 -2.61173 37,975 6 406 64
2017-10-19 13:50:47 GMT 44.85857 -2.61233 37,975 6 405 64
2017-10-19 13:50:43 GMT 44.85113 -2.61361 37,975 6 405 64
2017-10-19 13:50:39 GMT 44.84349 -2.61488 37,975 6 405 0
2017-10-19 13:50:32 GMT 44.83136 -2.61704 37,975 6 405 -64
2017-10-19 13:50:28 GMT 44.82170 -2.61867 37,975 6 405 -64
2017-10-19 13:50:22 GMT 44.81239 -2.62031 38,000 6 404 -64
2017-10-19 13:50:17 GMT 44.80350 -2.62178 38,000 6 403 0
2017-10-19 13:50:11 GMT 44.79224 -2.62372 38,000 6 402 0
2017-10-19 13:50:07 GMT 44.78484 -2.62500 38,000 6 402 -64
2017-10-19 13:50:03 GMT 44.77669 -2.62640 38,000 6 402 -64
2017-10-19 13:50:01 GMT 44.77428 -2.62684 38,000 6 402 -64
2017-10-19 13:49:55 GMT 44.76356 -2.62881 38,000 6 402 0
2017-10-19 13:49:52 GMT 44.75656 -2.62985 38,000 6 401 64
2017-10-19 13:49:49 GMT 44.75099 -2.63082 38,000 6 401 0
2017-10-19 13:49:46 GMT 44.74530 -2.63175 38,000 6 401 0
2017-10-19 13:49:42 GMT 44.73698 -2.63317 38,000 7 401 -64
2017-10-19 13:49:37 GMT 44.72814 -2.63471 38,000 7 401 0
2017-10-19 13:49:30 GMT 44.71561 -2.63685 38,000 7 401 0
2017-10-19 13:49:25 GMT 44.70677 -2.63833 38,000 6 401 0
2017-10-19 13:49:21 GMT 44.69980 -2.63973 38,000 7 401 -64
2017-10-19 13:49:11 GMT 44.67939 -2.64295 38,000 6 399 64
2017-10-19 13:49:08 GMT 44.67590 -2.64362 38,000 6 399 64
2017-10-19 13:48:56 GMT 44.65314 -2.64750 37,975 7 400 0
2017-10-19 13:48:50 GMT 44.64341 -2.64911 37,975 6 398 64
2017-10-19 13:48:48 GMT 44.64029 -2.64967 37,975 6 399 -64
2017-10-19 13:48:46 GMT 44.63644 -2.65045 37,975 6 398 64
2017-10-19 13:48:39 GMT 44.62344 -2.65254 38,000 6 398 64
2017-10-19 13:48:36 GMT 44.61685 -2.65385 38,000 6 398 0
2017-10-19 13:48:30 GMT 44.60407 -2.65581 37,975 6 398 -64
2017-10-19 13:48:24 GMT 44.59509 -2.65728 38,000 6 398 -64
2017-10-19 13:48:19 GMT 44.58648 -2.65883 38,000 6 397 0
2017-10-19 13:48:10 GMT 44.57028 -2.66150 38,000 6 396 64
2017-10-19 13:48:07 GMT 44.56480 -2.66242 37,975 6 396 0
2017-10-19 13:48:00 GMT 44.55058 -2.66485 38,000 6 396 0
2017-10-19 13:47:58 GMT 44.54858 -2.66526 38,000 6 396 -64
2017-10-19 13:47:53 GMT 44.53909 -2.66686 38,000 6 396 0
2017-10-19 13:47:48 GMT 44.53001 -2.66837 38,000 6 396 0
2017-10-19 13:47:40 GMT 44.51581 -2.67102 38,000 6 396 0
2017-10-19 13:47:38 GMT 44.51111 -2.67164 37,975 6 396 0
2017-10-19 13:47:28 GMT 44.49289 -2.67471 37,975 6 396 -64
2017-10-19 13:47:18 GMT 44.47238 -2.67824 38,000 6 395 -64
2017-10-19 13:47:09 GMT 44.45874 -2.68040 38,000 6 395 64
2017-10-19 13:47:06 GMT 44.45315 -2.68133 38,000 6 395 128
2017-10-19 13:46:58 GMT 44.43897 -2.68393 37,975 6 396 -64
2017-10-19 13:46:55 GMT 44.43364 -2.68468 37,975 6 396 -128
2017-10-19 13:46:45 GMT 44.41544 -2.68777 38,000 6 396 -128
2017-10-19 13:46:38 GMT 44.40148 -2.69011 38,025 6 395 0
2017-10-19 13:46:35 GMT 44.39729 -2.69085 38,025 6 395 64
2017-10-19 13:46:27 GMT 44.38346 -2.69312 38,000 6 396 -64
2017-10-19 13:46:25 GMT 44.37839 -2.69413 38,000 6 396 -128
2017-10-19 13:46:18 GMT 44.36382 -2.69661 38,025 6 396 64
2017-10-19 13:46:14 GMT 44.35895 -2.69721 38,025 6 396 64
2017-10-19 13:46:06 GMT 44.34439 -2.69963 38,025 6 396 64
2017-10-19 13:46:02 GMT 44.33565 -2.70107 38,025 6 396 0
2017-10-19 13:45:55 GMT 44.32489 -2.70309 38,025 6 397 0
2017-10-19 13:45:52 GMT 44.31941 -2.70384 38,025 6 397 -64
2017-10-19 13:45:46 GMT 44.30628 -2.70625 38,025 6 397 0
2017-10-19 13:45:42 GMT 44.29971 -2.70719 38,025 6 396 64
2017-10-19 13:45:34 GMT 44.28548 -2.70957 38,000 6 397 64
2017-10-19 13:45:23 GMT 44.26378 -2.71335 38,000 6 397 0
2017-10-19 13:45:12 GMT 44.24571 -2.71644 38,025 6 397 -64
2017-10-19 13:45:02 GMT 44.22821 -2.71918 38,025 6 396 0
2017-10-19 13:44:52 GMT 44.20857 -2.72253 38,025 6 395 0
2017-10-19 13:44:48 GMT 44.20186 -2.72381 38,025 6 395 0
2017-10-19 13:44:41 GMT 44.18948 -2.72572 38,025 6 395 64
2017-10-19 13:44:36 GMT 44.18042 -2.72729 38,000 6 394 64
2017-10-19 13:44:31 GMT 44.17211 -2.72866 38,000 6 394 64
2017-10-19 13:44:27 GMT 44.16341 -2.73017 38,000 6 394 0
2017-10-19 13:44:22 GMT 44.15286 -2.73196 38,000 6 394 -64
2017-10-19 13:44:12 GMT 44.13529 -2.73494 38,000 6 393 64
2017-10-19 13:44:05 GMT 44.12300 -2.73697 38,000 6 393 64
2017-10-19 13:44:00 GMT 44.11601 -2.73815 38,000 6 393 0
2017-10-19 13:43:51 GMT 44.09777 -2.74122 38,000 6 392 0
2017-10-19 13:43:44 GMT 44.08697 -2.74298 38,000 6 391 64
2017-10-19 13:43:39 GMT 44.07743 -2.74456 38,000 6 391 0
2017-10-19 13:43:34 GMT 44.06807 -2.74632 38,000 6 391 0
2017-10-19 13:43:29 GMT 44.05998 -2.74748 38,000 6 391 -64
2017-10-19 13:43:18 GMT 44.04044 -2.75073 38,000 6 390 0
2017-10-19 13:43:10 GMT 44.02625 -2.75316 38,000 6 390 64
2017-10-19 13:43:08 GMT 44.02267 -2.75374 38,000 6 390 64
2017-10-19 13:42:59 GMT 44.00299 -2.75724 38,000 6 389 0
2017-10-19 13:42:49 GMT 43.98743 -2.75961 38,000 6 389 0
2017-10-19 13:42:40 GMT 43.96953 -2.76255 38,000 6 389 0
2017-10-19 13:42:30 GMT 43.95241 -2.76536 38,000 6 388 0
2017-10-19 13:42:28 GMT 43.95099 -2.76562 38,000 6 388 0
2017-10-19 13:42:23 GMT 43.94205 -2.76705 38,000 6 388 0
2017-10-19 13:42:19 GMT 43.93223 -2.76869 38,000 6 388 0
2017-10-19 13:42:15 GMT 43.92795 -2.76960 38,000 6 388 0
2017-10-19 13:42:07 GMT 43.91313 -2.77181 38,000 6 388 -64
2017-10-19 13:42:00 GMT 43.90067 -2.77392 38,000 6 389 -64
2017-10-19 13:41:58 GMT 43.89459 -2.77494 38,000 6 389 -64
2017-10-19 13:41:54 GMT 43.89029 -2.77564 38,000 6 389 -64
2017-10-19 13:41:46 GMT 43.87546 -2.77814 38,025 6 389 -64
2017-10-19 13:41:42 GMT 43.86882 -2.77935 38,000 6 389 0
2017-10-19 13:41:37 GMT 43.85687 -2.78127 38,025 6 389 64
2017-10-19 13:41:35 GMT 43.85491 -2.78170 38,025 6 389 0
2017-10-19 13:41:33 GMT 43.85165 -2.78210 38,025 6 389 0
2017-10-19 13:41:28 GMT 43.84112 -2.78388 38,000 7 389 0
2017-10-19 13:41:26 GMT 43.83843 -2.78451 38,000 7 389 0
2017-10-19 13:41:16 GMT 43.81999 -2.78752 38,000 6 389 0
2017-10-19 13:41:12 GMT 43.81393 -2.78848 38,000 6 389 0
2017-10-19 13:41:05 GMT 43.80142 -2.79059 38,000 6 390 0
2017-10-19 13:41:01 GMT 43.79337 -2.79190 38,000 6 390 0
2017-10-19 13:40:54 GMT 43.78239 -2.79398 38,000 6 390 -64
2017-10-19 13:40:51 GMT 43.77777 -2.79458 38,000 6 390 -64
2017-10-19 13:40:44 GMT 43.76431 -2.79672 38,025 6 389 0
2017-10-19 13:40:41 GMT 43.75735 -2.79806 38,025 6 389 0
2017-10-19 13:40:34 GMT 43.74573 -2.79979 38,025 6 390 0
2017-10-19 13:40:28 GMT 43.73639 -2.80132 38,025 6 389 0
2017-10-19 13:40:24 GMT 43.72675 -2.80302 38,025 7 390 0
2017-10-19 13:40:20 GMT 43.72224 -2.80388 38,025 8 391 0
2017-10-19 13:40:12 GMT 43.70757 -2.80707 38,025 10 393 64
2017-10-19 13:40:07 GMT 43.69882 -2.80936 38,025 11 394 64
2017-10-19 13:40:03 GMT 43.68904 -2.81230 38,000 12 395 64
2017-10-19 13:39:52 GMT 43.67033 -2.81826 38,000 13 395 64
2017-10-19 13:39:45 GMT 43.65788 -2.82227 38,000 13 395 0
2017-10-19 13:39:42 GMT 43.65110 -2.82427 38,000 13 395 0
2017-10-19 13:39:37 GMT 43.64525 -2.82642 38,000 13 395 0
2017-10-19 13:39:34 GMT 43.64026 -2.82783 38,000 13 395 0
2017-10-19 13:39:30 GMT 43.63298 -2.83032 38,000 13 394 0
2017-10-19 13:39:28 GMT 43.62834 -2.83179 38,000 13 394 0
2017-10-19 13:39:21 GMT 43.61502 -2.83617 37,975 13 394 0
2017-10-19 13:39:15 GMT 43.60371 -2.83964 37,975 13 393 64
2017-10-19 13:39:10 GMT 43.59594 -2.84232 37,975 13 393 0
2017-10-19 13:39:06 GMT 43.58942 -2.84441 37,975 13 392 0
2017-10-19 13:39:00 GMT 43.57704 -2.84821 37,975 13 392 -64
2017-10-19 13:38:54 GMT 43.56750 -2.85148 37,975 13 392 0
2017-10-19 13:38:51 GMT 43.56294 -2.85293 37,975 13 391 0
2017-10-19 13:38:49 GMT 43.55960 -2.85408 37,975 13 391 64
2017-10-19 13:38:44 GMT 43.54920 -2.85743 37,975 13 391 0
2017-10-19 13:38:42 GMT 43.54706 -2.85808 37,975 13 391 0
2017-10-19 13:38:39 GMT 43.54091 -2.86011 37,975 13 391 0
2017-10-19 13:38:35 GMT 43.53543 -2.86181 37,975 13 391 -64
2017-10-19 13:38:30 GMT 43.52577 -2.86481 37,975 13 390 0
2017-10-19 13:38:28 GMT 43.52243 -2.86599 37,975 13 391 -64
2017-10-19 13:38:23 GMT 43.51326 -2.86894 38,000 13 391 0
2017-10-19 13:38:17 GMT 43.50375 -2.87184 38,000 13 390 0
2017-10-19 13:38:12 GMT 43.49181 -2.87586 38,000 13 390 0
2017-10-19 13:38:07 GMT 43.48549 -2.87771 38,000 13 390 0
2017-10-19 13:38:01 GMT 43.47476 -2.88143 38,000 13 390 0
2017-10-19 13:37:57 GMT 43.46736 -2.88359 38,000 13 391 0
2017-10-19 13:37:47 GMT 43.44960 -2.88928 38,000 13 391 0
2017-10-19 13:37:37 GMT 43.43216 -2.89496 38,000 13 391 -64
2017-10-19 13:37:35 GMT 43.42987 -2.89579 38,000 13 391 -64
2017-10-19 13:37:31 GMT 43.42179 -2.89836 38,000 13 391 -64
2017-10-19 13:37:26 GMT 43.41156 -2.90167 38,025 12 392 -64
2017-10-19 13:37:18 GMT 43.39883 -2.90569 38,025 13 392 0
2017-10-19 13:37:15 GMT 43.39353 -2.90719 38,025 13 392 0
2017-10-19 13:37:07 GMT 43.38048 -2.91151 38,025 13 393 0
2017-10-19 13:37:05 GMT 43.37444 -2.91327 38,025 13 393 0
2017-10-19 13:36:58 GMT 43.36208 -2.91719 38,025 12 392 0
2017-10-19 13:36:54 GMT 43.35605 -2.91916 38,025 12 391 0
2017-10-19 13:36:44 GMT 43.33722 -2.92428 38,025 9 390 0
2017-10-19 13:36:35 GMT 43.32421 -2.92701 38,025 6 387 0
2017-10-19 13:36:33 GMT 43.31891 -2.92792 38,025 7 388 0
2017-10-19 13:36:23 GMT 43.30075 -2.93067 38,025 4 386 64
2017-10-19 13:36:14 GMT 43.28599 -2.93194 38,000 2 384 64
2017-10-19 13:36:11 GMT 43.28105 -2.93239 38,000 1 384 64
2017-10-19 13:36:11 GMT 43.28105 -2.93239 38,000 2 384 64
2017-10-19 13:36:02 GMT 43.26192 -2.93271 38,000 0 382 0
2017-10-19 13:35:55 GMT 43.25207 -2.93239 38,000 359 382 -64
2017-10-19 13:35:53 GMT 43.24869 -2.93239 38,000 358 380 0
2017-10-19 13:35:51 GMT 43.24535 -2.93217 38,000 358 380 0
2017-10-19 13:35:44 GMT 43.23326 -2.93124 38,000 358 381 0
2017-10-19 13:35:41 GMT 43.22711 -2.93086 38,000 358 381 -64
2017-10-19 13:35:31 GMT 43.20845 -2.92971 38,000 358 381 -64
2017-10-19 13:35:20 GMT 43.18996 -2.92871 38,000 358 380 0
2017-10-19 13:35:14 GMT 43.18098 -2.92811 38,025 358 380 0
2017-10-19 13:35:10 GMT 43.17046 -2.92741 38,000 358 380 0
2017-10-19 13:35:05 GMT 43.16519 -2.92707 38,000 358 381 0
2017-10-19 13:34:58 GMT 43.15253 -2.92622 38,000 358 381 0
2017-10-19 13:34:49 GMT 43.13367 -2.92485 38,000 358 380 0
2017-10-19 13:34:38 GMT 43.11630 -2.92383 38,000 358 380 64
2017-10-19 13:34:38 GMT 43.11557 -2.92383 38,000 358 380 64
2017-10-19 13:34:31 GMT 43.10504 -2.92313 38,000 358 380 0
2017-10-19 13:34:27 GMT 43.09735 -2.92262 38,000 358 380 0
2017-10-19 13:34:16 GMT 43.07730 -2.92132 38,000 358 380 -64
2017-10-19 13:34:07 GMT 43.06082 -2.92006 38,000 358 380 0
2017-10-19 13:34:05 GMT 43.05835 -2.92007 38,000 358 379 0
2017-10-19 13:33:55 GMT 43.03976 -2.91872 38,000 358 379 0
2017-10-19 13:33:46 GMT 43.02349 -2.91765 38,000 358 379 0
2017-10-19 13:33:44 GMT 43.02155 -2.91770 38,000 358 379 0
2017-10-19 13:33:37 GMT 43.00754 -2.91662 38,000 358 379 0
2017-10-19 13:33:34 GMT 43.00510 -2.91661 38,000 358 379 0
2017-10-19 13:33:31 GMT 42.99742 -2.91595 38,000 358 379 0
2017-10-19 13:33:28 GMT 42.99462 -2.91576 38,000 358 378 0
2017-10-19 13:33:25 GMT 42.98676 -2.91547 38,000 358 378 0
2017-10-19 13:33:22 GMT 42.98447 -2.91527 38,000 358 378 0
2017-10-19 13:33:17 GMT 42.97084 -2.91438 38,000 358 378 0
2017-10-19 13:33:14 GMT 42.96703 -2.91400 38,000 358 378 0
2017-10-19 13:33:12 GMT 42.96579 -2.91406 38,000 358 378 0
2017-10-19 13:33:02 GMT 42.94762 -2.91285 38,000 358 378 0
2017-10-19 13:32:51 GMT 42.92894 -2.91144 38,000 358 378 -64
2017-10-19 13:32:43 GMT 42.91324 -2.91042 38,000 358 377 0
2017-10-19 13:32:41 GMT 42.91045 -2.91042 38,000 358 377 64
2017-10-19 13:32:30 GMT 42.89232 -2.90921 38,000 358 377 0
2017-10-19 13:32:22 GMT 42.87763 -2.90806 37,975 358 378 0
2017-10-19 13:32:19 GMT 42.87364 -2.90799 37,975 358 378 0
2017-10-19 13:32:09 GMT 42.85460 -2.90678 38,000 358 378 0
2017-10-19 13:31:57 GMT 42.83607 -2.90556 38,000 358 378 0
2017-10-19 13:31:45 GMT 42.81409 -2.90397 38,000 358 377 0
2017-10-19 13:31:35 GMT 42.79771 -2.90288 38,000 358 378 0
2017-10-19 13:31:34 GMT 42.79175 -2.90264 37,975 358 378 -64
2017-10-19 13:31:25 GMT 42.77920 -2.90170 38,000 358 378 0
2017-10-19 13:31:15 GMT 42.76048 -2.90051 38,000 358 377 0
2017-10-19 13:31:09 GMT 42.74638 -2.89977 38,000 358 377 0
2017-10-19 13:31:04 GMT 42.74217 -2.89945 38,000 358 377 64
2017-10-19 13:31:01 GMT 42.73384 -2.89877 38,000 358 377 0
2017-10-19 13:30:52 GMT 42.72194 -2.89814 38,000 358 378 -64
2017-10-19 13:30:42 GMT 42.70171 -2.89664 38,000 358 378 0
2017-10-19 13:30:18 GMT 42.65973 -2.89415 38,000 358 379 0
2017-10-19 13:30:09 GMT 42.64362 -2.89309 38,000 358 379 0
2017-10-19 13:29:58 GMT 42.62719 -2.89202 38,000 358 378 0
2017-10-19 13:29:53 GMT 42.61633 -2.89134 38,000 358 378 0
2017-10-19 13:29:47 GMT 42.60829 -2.89081 38,000 358 378 0
2017-10-19 13:29:39 GMT 42.59345 -2.88984 38,000 358 378 0
2017-10-19 13:29:37 GMT 42.58910 -2.88959 38,000 358 378 -64
2017-10-19 13:29:30 GMT 42.57738 -2.88865 38,000 358 378 -64
2017-10-19 13:29:25 GMT 42.57053 -2.88826 38,000 358 378 0
2017-10-19 13:29:21 GMT 42.56108 -2.88766 38,000 358 378 0
2017-10-19 13:29:15 GMT 42.55202 -2.88709 38,000 358 379 0
2017-10-19 13:29:07 GMT 42.53590 -2.88610 38,000 358 379 0
2017-10-19 13:29:04 GMT 42.53343 -2.88596 38,000 358 379 64
2017-10-19 13:28:59 GMT 42.52240 -2.88525 38,000 358 379 0
2017-10-19 13:28:54 GMT 42.51627 -2.88485 38,000 358 380 0
2017-10-19 13:28:43 GMT 42.49623 -2.88385 38,000 358 380 0
2017-10-19 13:28:33 GMT 42.47720 -2.88327 38,000 0 382 0
2017-10-19 13:28:21 GMT 42.45815 -2.88410 38,000 4 382 0
2017-10-19 13:28:15 GMT 42.44440 -2.88522 38,000 5 381 0
2017-10-19 13:28:12 GMT 42.44087 -2.88572 38,000 5 381 0
2017-10-19 13:28:01 GMT 42.42250 -2.88851 38,000 8 381 64
2017-10-19 13:27:58 GMT 42.41707 -2.88959 38,000 9 382 64
2017-10-19 13:27:53 GMT 42.40663 -2.89178 38,000 9 380 0
2017-10-19 13:27:50 GMT 42.40350 -2.89266 38,000 9 380 0
2017-10-19 13:27:40 GMT 42.38589 -2.89683 38,000 9 379 0
2017-10-19 13:27:38 GMT 42.38279 -2.89739 38,000 9 378 0
2017-10-19 13:27:30 GMT 42.36831 -2.90090 38,000 9 377 0
2017-10-19 13:27:27 GMT 42.36417 -2.90192 38,000 9 377 0
2017-10-19 13:27:19 GMT 42.34983 -2.90524 38,000 9 374 64
2017-10-19 13:27:09 GMT 42.33209 -2.90940 38,000 9 373 -64
2017-10-19 13:27:04 GMT 42.32359 -2.91138 38,000 9 372 -64
2017-10-19 13:26:58 GMT 42.31412 -2.91362 38,000 9 370 64
2017-10-19 13:26:48 GMT 42.29411 -2.91827 38,000 9 368 0
2017-10-19 13:26:37 GMT 42.27884 -2.92192 38,000 9 366 0
2017-10-19 13:26:34 GMT 42.26917 -2.92417 38,000 9 366 64
2017-10-19 13:26:25 GMT 42.25421 -2.92767 38,000 9 364 0
2017-10-19 13:26:14 GMT 42.23703 -2.93156 38,000 9 361 64
2017-10-19 13:26:05 GMT 42.22554 -2.93441 38,000 9 360 128
2017-10-19 13:26:00 GMT 42.21408 -2.93712 38,000 9 360 0
2017-10-19 13:25:54 GMT 42.20718 -2.93872 38,000 9 360 -64
2017-10-19 13:25:49 GMT 42.19835 -2.94063 38,000 9 360 0
2017-10-19 13:25:44 GMT 42.19094 -2.94236 38,000 9 359 -64
2017-10-19 13:25:40 GMT 42.18261 -2.94434 38,000 9 359 64
2017-10-19 13:25:34 GMT 42.17358 -2.94652 38,000 9 359 0
2017-10-19 13:25:30 GMT 42.16492 -2.94862 38,000 9 360 0
2017-10-19 13:25:23 GMT 42.15459 -2.95095 38,000 9 360 0
2017-10-19 13:25:11 GMT 42.13751 -2.95488 38,000 9 360 64
2017-10-19 13:25:08 GMT 42.12754 -2.95724 38,000 9 360 -64
2017-10-19 13:25:01 GMT 42.12062 -2.95863 38,000 9 361 -64
2017-10-19 13:24:57 GMT 42.11124 -2.96094 38,000 9 361 -64
2017-10-19 13:24:50 GMT 42.10268 -2.96294 38,000 9 360 -64
2017-10-19 13:24:40 GMT 42.08579 -2.96687 38,000 9 360 -64
2017-10-19 13:24:30 GMT 42.06789 -2.97099 38,000 9 360 0
2017-10-19 13:24:19 GMT 42.05129 -2.97480 38,000 9 360 0
2017-10-19 13:24:17 GMT 42.04509 -2.97623 38,000 9 360 64
2017-10-19 13:24:07 GMT 42.03245 -2.97892 38,000 9 360 -64
2017-10-19 13:24:03 GMT 42.02243 -2.98145 38,000 9 360 64
2017-10-19 13:23:57 GMT 42.01492 -2.98323 38,000 9 360 0
2017-10-19 13:23:55 GMT 42.01000 -2.98432 38,000 9 359 0
2017-10-19 13:23:47 GMT 41.99868 -2.98694 38,000 9 359 0
2017-10-19 13:23:42 GMT 41.99066 -2.98884 38,000 9 359 0
2017-10-19 13:23:35 GMT 41.97988 -2.99141 38,000 9 359 -64
2017-10-19 13:23:31 GMT 41.97038 -2.99359 38,000 9 359 0
2017-10-19 13:23:25 GMT 41.96330 -2.99524 38,000 9 359 0
2017-10-19 13:23:14 GMT 41.94454 -2.99965 38,000 9 358 0
2017-10-19 13:23:10 GMT 41.93619 -3.00158 38,000 9 358 -128
2017-10-19 13:23:04 GMT 41.92886 -3.00310 38,000 9 358 -64
2017-10-19 13:22:57 GMT 41.91764 -3.00585 38,000 9 357 0
2017-10-19 13:22:53 GMT 41.91196 -3.00700 38,000 9 357 64
2017-10-19 13:22:49 GMT 41.90134 -3.00962 38,000 9 357 -64
2017-10-19 13:22:46 GMT 41.89975 -3.01000 38,000 9 358 -64
2017-10-19 13:22:43 GMT 41.89471 -3.01100 38,000 9 357 -64
2017-10-19 13:22:35 GMT 41.87877 -3.01492 38,000 9 357 -64
2017-10-19 13:22:33 GMT 41.87778 -3.01512 38,000 9 357 -64
2017-10-19 13:22:27 GMT 41.86359 -3.01837 38,000 9 358 0
2017-10-19 13:22:22 GMT 41.86033 -3.01913 38,000 9 358 -64
2017-10-19 13:22:12 GMT 41.84334 -3.02303 38,025 9 360 -64
2017-10-19 13:22:03 GMT 41.82905 -3.02641 38,025 9 361 128
2017-10-19 13:22:01 GMT 41.82574 -3.02718 38,000 10 362 192
2017-10-19 13:21:54 GMT 41.81117 -3.03057 37,975 9 366 64
2017-10-19 13:21:50 GMT 41.80782 -3.03133 37,975 9 366 64
2017-10-19 13:21:43 GMT 41.79607 -3.03385 38,000 9 369 0
2017-10-19 13:21:39 GMT 41.78934 -3.03553 38,000 9 369 0
2017-10-19 13:21:27 GMT 41.76965 -3.03997 38,000 9 369 -128
2017-10-19 13:21:24 GMT 41.76346 -3.04142 38,000 9 369 -64
2017-10-19 13:21:22 GMT 41.76178 -3.04178 38,000 9 369 -64
2017-10-19 13:21:18 GMT 41.75368 -3.04365 38,000 9 370 -256
2017-10-19 13:21:11 GMT 41.74251 -3.04615 38,025 9 370 -64
2017-10-19 13:21:08 GMT 41.73711 -3.04724 38,000 9 371 -128
2017-10-19 13:21:00 GMT 41.72456 -3.05027 38,025 9 372 -64
2017-10-19 13:20:58 GMT 41.71811 -3.05171 38,025 9 372 64
2017-10-19 13:20:46 GMT 41.70003 -3.05582 37,975 9 376 64
2017-10-19 13:20:42 GMT 41.69110 -3.05782 37,975 9 380 -192
2017-10-19 13:20:35 GMT 41.67723 -3.06082 38,025 9 380 0
2017-10-19 13:20:35 GMT 41.68002 -3.06032 38,000 9 380 0
2017-10-19 13:20:30 GMT 41.67169 -3.06206 38,025 9 380 0
2017-10-19 13:20:24 GMT 41.66199 -3.06431 38,025 9 380 0
2017-10-19 13:20:13 GMT 41.64358 -3.06851 38,025 9 380 0
2017-10-19 13:20:11 GMT 41.63944 -3.06947 38,025 9 380 64
2017-10-19 13:20:04 GMT 41.62523 -3.07293 38,025 9 380 0
2017-10-19 13:20:02 GMT 41.62106 -3.07386 38,025 9 380 0
2017-10-19 13:20:00 GMT 41.62106 -3.07386 38,025 9 380 0
2017-10-19 13:19:52 GMT 41.60303 -3.07798 38,025 9 380 64
2017-10-19 13:19:50 GMT 41.60234 -3.07817 38,025 9 380 64
2017-10-19 13:19:40 GMT 41.58604 -3.08186 38,000 9 380 0
2017-10-19 13:19:30 GMT 41.56454 -3.08677 38,000 9 381 0
2017-10-19 13:19:20 GMT 41.55048 -3.08990 38,000 9 380 0
2017-10-19 13:19:17 GMT 41.54333 -3.09165 38,000 9 380 0
2017-10-19 13:19:10 GMT 41.53395 -3.09380 38,000 9 380 0
2017-10-19 13:19:07 GMT 41.52393 -3.09608 38,000 9 380 0
2017-10-19 13:19:00 GMT 41.51559 -3.09802 38,000 9 380 -64
2017-10-19 13:18:54 GMT 41.50172 -3.10114 38,000 9 379 64
2017-10-19 13:18:49 GMT 41.49671 -3.10236 38,000 9 379 64
2017-10-19 13:18:43 GMT 41.48442 -3.10507 38,000 9 379 0
2017-10-19 13:18:39 GMT 41.47925 -3.10626 38,000 9 379 0
2017-10-19 13:18:34 GMT 41.47162 -3.10779 38,000 9 379 64
2017-10-19 13:18:32 GMT 41.46403 -3.10958 37,975 9 379 64
2017-10-19 13:18:29 GMT 41.46059 -3.11054 37,975 9 379 64
2017-10-19 13:18:27 GMT 41.45815 -3.11088 38,000 9 378 64
2017-10-19 13:18:21 GMT 41.44780 -3.11344 37,975 9 378 0
2017-10-19 13:18:17 GMT 41.44226 -3.11450 37,975 9 378 0
2017-10-19 13:18:10 GMT 41.42605 -3.11833 37,975 9 378 0
2017-10-19 13:18:07 GMT 41.42400 -3.11884 37,975 9 378 0
2017-10-19 13:18:00 GMT 41.40747 -3.12235 37,975 9 378 0
2017-10-19 13:17:55 GMT 41.40436 -3.12324 37,975 9 377 0
2017-10-19 13:17:55 GMT 41.40333 -3.12344 37,975 9 377 0
2017-10-19 13:17:50 GMT 41.38989 -3.12648 37,975 9 377 0
2017-10-19 13:17:43 GMT 41.38405 -3.12786 37,975 9 377 0
2017-10-19 13:17:37 GMT 41.37032 -3.13079 37,975 9 377 -64
2017-10-19 13:17:34 GMT 41.36861 -3.13135 37,975 9 377 -64
2017-10-19 13:17:28 GMT 41.35414 -3.13464 37,975 9 377 0
2017-10-19 13:17:21 GMT 41.34556 -3.13641 37,975 9 377 0
2017-10-19 13:17:14 GMT 41.33317 -3.13941 37,975 9 377 -64
2017-10-19 13:17:03 GMT 41.31465 -3.14359 38,000 9 376 0
2017-10-19 13:16:52 GMT 41.29612 -3.14777 38,000 9 376 -64
2017-10-19 13:16:42 GMT 41.27724 -3.15204 38,000 9 376 -64
2017-10-19 13:16:37 GMT 41.27037 -3.15356 38,000 9 376 -64
2017-10-19 13:16:31 GMT 41.26041 -3.15582 38,000 9 376 -64
2017-10-19 13:16:22 GMT 41.24153 -3.16003 38,000 9 377 -64
2017-10-19 13:16:18 GMT 41.23810 -3.16083 38,025 9 377 -64
2017-10-19 13:16:10 GMT 41.22331 -3.16394 38,025 9 377 0
2017-10-19 13:16:08 GMT 41.21986 -3.16487 38,025 9 377 -64
2017-10-19 13:16:01 GMT 41.20543 -3.16806 38,025 9 377 0
2017-10-19 13:15:58 GMT 41.20235 -3.16876 38,025 9 378 0
2017-10-19 13:15:56 GMT 41.19994 -3.16912 38,025 9 378 0
2017-10-19 13:15:50 GMT 41.18821 -3.17193 38,025 9 378 0
2017-10-19 13:15:46 GMT 41.18267 -3.17318 38,025 9 378 0
2017-10-19 13:15:40 GMT 41.16959 -3.17611 38,025 9 378 0
2017-10-19 13:15:36 GMT 41.16440 -3.17725 38,025 9 379 0
2017-10-19 13:15:28 GMT 41.15195 -3.17993 38,025 9 380 0
2017-10-19 13:15:25 GMT 41.14608 -3.18142 38,025 9 379 0
2017-10-19 13:15:19 GMT 41.13396 -3.18420 38,025 9 380 0
2017-10-19 13:15:15 GMT 41.12842 -3.18549 38,025 9 380 0
2017-10-19 13:15:10 GMT 41.11973 -3.18741 38,025 9 380 0
2017-10-19 13:15:07 GMT 41.11419 -3.18866 38,000 9 380 0
2017-10-19 13:15:04 GMT 41.11038 -3.18939 38,000 9 380 0
2017-10-19 13:14:58 GMT 41.09999 -3.19190 38,000 9 380 64
2017-10-19 13:14:54 GMT 41.09029 -3.19403 38,000 9 380 0
2017-10-19 13:14:49 GMT 41.08319 -3.19565 38,000 9 380 0
2017-10-19 13:14:45 GMT 41.07471 -3.19752 38,000 9 379 0
2017-10-19 13:14:43 GMT 41.07057 -3.19846 38,000 9 379 0
2017-10-19 13:14:39 GMT 41.06607 -3.19928 38,000 9 379 0
2017-10-19 13:14:34 GMT 41.05705 -3.20129 38,000 9 379 0
2017-10-19 13:14:32 GMT 41.05156 -3.20270 38,000 9 379 0
2017-10-19 13:14:26 GMT 41.04357 -3.20426 38,000 9 378 0
2017-10-19 13:14:24 GMT 41.03948 -3.20539 38,000 9 378 0
2017-10-19 13:14:19 GMT 41.02876 -3.20776 38,000 9 378 0
2017-10-19 13:14:14 GMT 41.02220 -3.20907 38,000 9 378 0
2017-10-19 13:14:09 GMT 41.01187 -3.21157 38,000 9 377 0
2017-10-19 13:14:02 GMT 41.00293 -3.21344 38,000 9 377 0
2017-10-19 13:13:59 GMT 40.99434 -3.21551 38,000 9 377 64
2017-10-19 13:13:54 GMT 40.98850 -3.21668 38,000 9 377 64
2017-10-19 13:13:45 GMT 40.97062 -3.22087 38,000 9 377 0
2017-10-19 13:13:43 GMT 40.96962 -3.22107 38,000 9 377 0
2017-10-19 13:13:37 GMT 40.95759 -3.22380 37,975 9 377 64
2017-10-19 13:13:33 GMT 40.95241 -3.22498 38,000 9 377 0
2017-10-19 13:13:25 GMT 40.93730 -3.22839 37,975 9 376 0
2017-10-19 13:13:22 GMT 40.93387 -3.22913 37,975 9 376 0
2017-10-19 13:13:20 GMT 40.93044 -3.22992 37,975 9 376 0
2017-10-19 13:13:15 GMT 40.91739 -3.23291 37,975 9 376 0
2017-10-19 13:13:12 GMT 40.91430 -3.23360 37,975 9 376 0
2017-10-19 13:13:05 GMT 40.90401 -3.23579 37,975 9 376 0
2017-10-19 13:13:03 GMT 40.89921 -3.23691 37,975 9 376 0
2017-10-19 13:13:00 GMT 40.89577 -3.23785 37,975 9 376 0
2017-10-19 13:12:50 GMT 40.87894 -3.24146 37,975 9 377 0
2017-10-19 13:12:46 GMT 40.87207 -3.24310 37,975 9 375 0
2017-10-19 13:12:43 GMT 40.86177 -3.24530 37,975 8 375 0
2017-10-19 13:12:40 GMT 40.85353 -3.24701 37,975 8 375 0
2017-10-19 13:12:31 GMT 40.84423 -3.24889 37,975 8 375 0
2017-10-19 13:12:25 GMT 40.83534 -3.25070 37,975 8 375 0
2017-10-19 13:12:21 GMT 40.82469 -3.25293 38,000 8 375 -64
2017-10-19 13:12:18 GMT 40.82366 -3.25314 38,000 8 375 -64
2017-10-19 13:12:14 GMT 40.81677 -3.25451 38,000 8 376 -64
2017-10-19 13:12:09 GMT 40.80783 -3.25638 38,000 8 376 -64
2017-10-19 13:12:06 GMT 40.80267 -3.25745 38,000 8 376 -64
2017-10-19 13:12:03 GMT 40.79787 -3.25842 38,000 8 376 0
2017-10-19 13:11:59 GMT 40.78930 -3.26013 38,000 8 376 -64
2017-10-19 13:11:56 GMT 40.78276 -3.26147 38,000 8 376 0
2017-10-19 13:11:54 GMT 40.78276 -3.26147 38,000 8 376 -64
2017-10-19 13:11:52 GMT 40.77997 -3.26208 38,000 8 377 -64
2017-10-19 13:11:46 GMT 40.76929 -3.26425 38,000 8 377 -64
2017-10-19 13:11:43 GMT 40.76344 -3.26544 38,025 8 377 -64
2017-10-19 13:11:38 GMT 40.75360 -3.26750 38,025 8 377 -64
2017-10-19 13:11:35 GMT 40.74582 -3.26906 38,025 8 378 -64
2017-10-19 13:11:33 GMT 40.74582 -3.26906 38,025 8 378 -64
2017-10-19 13:11:28 GMT 40.73859 -3.27051 38,025 8 378 0
2017-10-19 13:11:25 GMT 40.73305 -3.27167 38,025 8 378 0
2017-10-19 13:11:22 GMT 40.72785 -3.27274 38,025 8 378 0
2017-10-19 13:11:15 GMT 40.71574 -3.27521 38,025 8 378 0
2017-10-19 13:11:13 GMT 40.71058 -3.27630 38,025 8 379 -64
2017-10-19 13:11:09 GMT 40.70554 -3.27740 38,025 8 379 -64
2017-10-19 13:11:04 GMT 40.69707 -3.27911 38,025 8 379 -64
2017-10-19 13:11:02 GMT 40.69221 -3.28009 38,025 8 379 0
2017-10-19 13:10:55 GMT 40.68004 -3.28254 38,025 8 379 64
2017-10-19 13:10:51 GMT 40.67413 -3.28375 38,025 8 380 64
2017-10-19 13:10:45 GMT 40.66232 -3.28619 38,025 8 380 64
2017-10-19 13:10:41 GMT 40.65605 -3.28748 38,025 8 380 64
2017-10-19 13:10:39 GMT 40.65257 -3.28821 38,025 8 381 64
2017-10-19 13:10:33 GMT 40.64318 -3.29016 38,000 8 381 0
2017-10-19 13:10:31 GMT 40.63797 -3.29120 38,000 8 381 0
2017-10-19 13:10:29 GMT 40.63605 -3.29163 38,025 8 382 0
2017-10-19 13:10:23 GMT 40.62259 -3.29431 38,025 8 382 0
2017-10-19 13:10:21 GMT 40.62013 -3.29484 38,025 8 382 0
2017-10-19 13:10:13 GMT 40.60565 -3.29783 38,025 8 382 0
2017-10-19 13:10:10 GMT 40.60162 -3.29864 38,025 8 382 0
2017-10-19 13:10:07 GMT 40.59150 -3.30070 38,025 8 382 64
2017-10-19 13:10:00 GMT 40.58382 -3.30227 38,000 8 382 64
2017-10-19 13:09:58 GMT 40.58168 -3.30264 38,000 8 382 0
2017-10-19 13:09:55 GMT 40.57297 -3.30444 38,000 8 382 -64
2017-10-19 13:09:52 GMT 40.56911 -3.30520 38,000 8 382 -64
2017-10-19 13:09:50 GMT 40.56581 -3.30595 38,025 8 382 -64
2017-10-19 13:09:48 GMT 40.56317 -3.30640 38,025 8 382 0
2017-10-19 13:09:44 GMT 40.55690 -3.30768 38,025 8 381 64
2017-10-19 13:09:41 GMT 40.55100 -3.30888 38,000 8 381 64
2017-10-19 13:09:39 GMT 40.54821 -3.30944 38,000 8 381 64
2017-10-19 13:09:34 GMT 40.53564 -3.31200 38,000 8 381 -64
2017-10-19 13:09:30 GMT 40.53303 -3.31257 38,000 8 381 -64
2017-10-19 13:09:28 GMT 40.52936 -3.31331 38,000 8 381 -64
2017-10-19 13:09:24 GMT 40.52242 -3.31450 38,000 8 380 64
2017-10-19 13:09:22 GMT 40.51721 -3.31580 38,000 8 380 128
2017-10-19 13:09:18 GMT 40.51060 -3.31712 38,000 8 380 64
2017-10-19 13:09:11 GMT 40.49703 -3.31989 38,000 8 380 -64
2017-10-19 13:09:08 GMT 40.49355 -3.32062 38,000 8 380 -64
2017-10-19 13:09:06 GMT 40.49132 -3.32112 38,000 8 380 64
2017-10-19 13:09:03 GMT 40.48490 -3.32237 38,000 8 379 64
2017-10-19 13:09:00 GMT 40.47830 -3.32373 38,000 8 379 64
2017-10-19 13:08:57 GMT 40.47569 -3.32428 38,000 8 379 64
2017-10-19 13:08:49 GMT 40.45889 -3.32770 38,000 8 379 -64
2017-10-19 13:08:47 GMT 40.45766 -3.32794 38,000 8 379 -64
2017-10-19 13:08:42 GMT 40.44952 -3.32961 38,000 8 379 0
2017-10-19 13:08:39 GMT 40.44223 -3.33106 37,975 8 378 0
2017-10-19 13:08:36 GMT 40.43948 -3.33148 37,975 8 378 0
2017-10-19 13:08:34 GMT 40.43395 -3.33276 37,975 8 378 -64
2017-10-19 13:08:27 GMT 40.42149 -3.33527 38,000 8 377 -64
2017-10-19 13:08:23 GMT 40.41184 -3.33722 38,000 8 377 0
2017-10-19 13:08:16 GMT 40.40378 -3.33893 38,000 8 376 64
2017-10-19 13:08:13 GMT 40.39948 -3.33972 38,000 8 376 0
2017-10-19 13:08:10 GMT 40.39394 -3.34088 38,000 8 376 0
2017-10-19 13:08:05 GMT 40.38602 -3.34246 38,000 8 376 -64
2017-10-19 13:08:01 GMT 40.37778 -3.34409 38,000 8 375 0
2017-10-19 13:07:59 GMT 40.37334 -3.34497 38,000 8 375 0
2017-10-19 13:07:56 GMT 40.36853 -3.34595 38,000 8 375 0
2017-10-19 13:07:54 GMT 40.36510 -3.34662 38,000 8 375 0
2017-10-19 13:07:50 GMT 40.35925 -3.34783 38,000 8 375 0
2017-10-19 13:07:45 GMT 40.35101 -3.34952 38,000 8 375 0
2017-10-19 13:07:43 GMT 40.34724 -3.35028 38,000 8 375 0
2017-10-19 13:07:39 GMT 40.34038 -3.35168 38,000 8 375 0
2017-10-19 13:07:35 GMT 40.33319 -3.35314 38,000 9 374 0
2017-10-19 13:07:30 GMT 40.32359 -3.35514 38,000 9 374 64
2017-10-19 13:07:23 GMT 40.31300 -3.35730 38,000 8 374 0
2017-10-19 13:07:21 GMT 40.30751 -3.35846 38,000 8 374 0
2017-10-19 13:07:19 GMT 40.30614 -3.35870 38,000 8 374 0
2017-10-19 13:07:11 GMT 40.29348 -3.36125 38,000 8 374 0
2017-10-19 13:07:09 GMT 40.28798 -3.36238 38,000 8 374 0
2017-10-19 13:07:01 GMT 40.27569 -3.36488 38,000 8 374 0
2017-10-19 13:06:58 GMT 40.27090 -3.36569 37,975 8 374 0
2017-10-19 13:06:50 GMT 40.25619 -3.36883 37,975 8 374 0
2017-10-19 13:06:48 GMT 40.25345 -3.36938 38,000 8 374 0
2017-10-19 13:06:41 GMT 40.24187 -3.37176 38,000 8 373 0
2017-10-19 13:06:38 GMT 40.23706 -3.37268 37,975 8 373 64
2017-10-19 13:06:38 GMT 40.23624 -3.37286 37,975 8 373 64
2017-10-19 13:06:36 GMT 40.22887 -3.37433 37,975 8 373 0
2017-10-19 13:06:30 GMT 40.22309 -3.37555 37,975 8 373 -64
2017-10-19 13:06:25 GMT 40.21010 -3.37817 38,000 8 373 -64
2017-10-19 13:06:20 GMT 40.20582 -3.37898 38,000 8 373 0
2017-10-19 13:06:17 GMT 40.19986 -3.38023 38,000 8 373 0
2017-10-19 13:06:15 GMT 40.19202 -3.38178 38,000 8 373 0
2017-10-19 13:06:10 GMT 40.18794 -3.38263 38,000 8 373 0
2017-10-19 13:06:08 GMT 40.18487 -3.38323 38,000 8 372 -64
2017-10-19 13:06:05 GMT 40.17975 -3.38428 38,000 8 372 -64
2017-10-19 13:06:01 GMT 40.17023 -3.38623 38,000 8 372 -64
2017-10-19 13:05:59 GMT 40.16853 -3.38654 38,000 8 372 0
2017-10-19 13:05:56 GMT 40.16513 -3.38722 38,000 8 372 0
2017-10-19 13:05:49 GMT 40.15251 -3.38977 38,000 8 372 0
2017-10-19 13:05:46 GMT 40.14775 -3.39075 38,000 8 372 0
2017-10-19 13:05:42 GMT 40.13805 -3.39270 38,000 8 372 0
2017-10-19 13:05:39 GMT 40.13548 -3.39325 38,000 8 372 0
2017-10-19 13:05:37 GMT 40.13141 -3.39404 38,000 8 372 0
2017-10-19 13:05:30 GMT 40.11946 -3.39646 38,000 8 373 -64
2017-10-19 13:05:27 GMT 40.11433 -3.39746 38,000 8 373 -64
2017-10-19 13:05:19 GMT 40.09868 -3.40063 38,000 8 373 -64
2017-10-19 13:05:15 GMT 40.09493 -3.40139 38,025 8 373 0
2017-10-19 13:05:08 GMT 40.08298 -3.40375 38,025 8 373 -64
2017-10-19 13:05:06 GMT 40.07753 -3.40485 38,025 8 373 0
2017-10-19 13:04:57 GMT 40.06383 -3.40757 38,025 8 373 0
2017-10-19 13:04:55 GMT 40.05940 -3.40851 38,025 8 374 0
2017-10-19 13:04:47 GMT 40.04745 -3.41088 38,025 8 374 0
2017-10-19 13:04:45 GMT 40.04233 -3.41193 38,000 8 374 0
2017-10-19 13:04:37 GMT 40.02962 -3.41444 38,000 8 375 0
2017-10-19 13:04:34 GMT 40.02482 -3.41538 38,000 8 375 0
2017-10-19 13:04:26 GMT 40.01109 -3.41812 38,025 8 375 0
2017-10-19 13:04:24 GMT 40.00560 -3.41925 38,025 8 375 0
2017-10-19 13:04:16 GMT 39.99362 -3.42163 38,000 8 375 0
2017-10-19 13:04:14 GMT 39.98676 -3.42304 38,000 8 375 0
2017-10-19 13:04:04 GMT 39.97302 -3.42584 38,000 8 375 0
2017-10-19 13:04:02 GMT 39.96719 -3.42699 38,000 8 375 64
2017-10-19 13:03:54 GMT 39.95311 -3.42981 38,000 8 375 0
2017-10-19 13:03:51 GMT 39.94866 -3.43073 38,000 8 375 0
2017-10-19 13:03:43 GMT 39.93663 -3.43310 38,000 8 375 -64
2017-10-19 13:03:40 GMT 39.92839 -3.43475 38,000 8 375 0
2017-10-19 13:03:33 GMT 39.91915 -3.43658 38,000 8 375 0
2017-10-19 13:03:30 GMT 39.91021 -3.43835 38,000 8 374 0
2017-10-19 13:03:24 GMT 39.90440 -3.43956 38,000 8 374 0
2017-10-19 13:03:22 GMT 39.90097 -3.44021 38,000 8 374 0
2017-10-19 13:03:19 GMT 39.89072 -3.44230 38,000 8 374 -64
2017-10-19 13:03:13 GMT 39.88354 -3.44373 38,000 8 374 -64
2017-10-19 13:03:06 GMT 39.87016 -3.44636 38,000 8 374 0
2017-10-19 13:03:03 GMT 39.86915 -3.44659 38,000 8 374 0
2017-10-19 13:03:01 GMT 39.86505 -3.44739 38,000 8 374 64
2017-10-19 13:02:56 GMT 39.85272 -3.44989 38,000 8 374 -64
2017-10-19 13:02:52 GMT 39.84862 -3.45068 38,000 8 374 0
2017-10-19 13:02:46 GMT 39.83424 -3.45355 38,000 8 374 0
2017-10-19 13:02:43 GMT 39.83354 -3.45367 38,025 8 374 -64
2017-10-19 13:02:41 GMT 39.83047 -3.45431 38,025 8 374 0
2017-10-19 13:02:32 GMT 39.81537 -3.45729 38,025 8 375 0
2017-10-19 13:02:30 GMT 39.81231 -3.45789 38,025 8 375 0
2017-10-19 13:02:23 GMT 39.79583 -3.46118 38,025 8 375 0
2017-10-19 13:02:21 GMT 39.79583 -3.46118 38,025 8 375 0
2017-10-19 13:02:10 GMT 39.77800 -3.46423 38,025 6 373 0
2017-10-19 13:02:01 GMT 39.76013 -3.46631 38,025 4 373 -64
2017-10-19 13:01:51 GMT 39.74500 -3.46783 38,025 4 373 0
2017-10-19 13:01:49 GMT 39.74190 -3.46810 38,025 4 373 0
2017-10-19 13:01:41 GMT 39.72679 -3.46965 38,050 4 373 0
2017-10-19 13:01:38 GMT 39.71818 -3.47052 38,025 4 373 0
2017-10-19 13:01:29 GMT 39.70615 -3.47174 38,025 4 373 64
2017-10-19 13:01:20 GMT 39.68997 -3.47339 38,025 4 373 0
2017-10-19 13:01:16 GMT 39.68103 -3.47430 38,025 4 373 0
2017-10-19 13:01:10 GMT 39.67310 -3.47514 38,025 4 373 0
2017-10-19 13:01:08 GMT 39.67035 -3.47538 38,025 4 373 0
2017-10-19 13:00:58 GMT 39.65348 -3.47711 38,025 4 373 64
2017-10-19 13:00:52 GMT 39.63835 -3.47870 38,025 4 373 0
2017-10-19 13:00:48 GMT 39.63661 -3.47885 38,025 4 373 0
2017-10-19 13:00:39 GMT 39.61803 -3.48075 38,000 4 373 0
2017-10-19 13:00:28 GMT 39.60185 -3.48242 38,000 4 373 64
2017-10-19 13:00:18 GMT 39.58463 -3.48419 38,000 4 373 64
2017-10-19 13:00:12 GMT 39.57364 -3.48529 37,975 4 373 64
2017-10-19 13:00:07 GMT 39.56675 -3.48596 37,975 4 372 64
2017-10-19 13:00:07 GMT 39.56540 -3.48615 37,975 4 372 64
2017-10-19 12:59:59 GMT 39.54922 -3.48774 37,975 4 372 64
2017-10-19 12:59:58 GMT 39.54922 -3.48774 37,975 4 372 64
2017-10-19 12:59:56 GMT 39.54478 -3.48822 37,975 4 372 0
2017-10-19 12:59:48 GMT 39.53039 -3.48962 37,975 4 372 0
2017-10-19 12:59:46 GMT 39.53039 -3.48962 37,975 4 372 0
2017-10-19 12:59:36 GMT 39.51292 -3.49138 37,975 4 371 0
2017-10-19 12:59:27 GMT 39.49683 -3.49304 37,975 4 371 0
2017-10-19 12:59:25 GMT 39.49203 -3.49347 37,975 4 371 0
2017-10-19 12:59:16 GMT 39.47835 -3.49487 37,975 4 371 0
2017-10-19 12:59:14 GMT 39.47324 -3.49538 37,975 4 370 0
2017-10-19 12:59:05 GMT 39.46061 -3.49664 37,975 4 370 0
2017-10-19 12:59:02 GMT 39.45204 -3.49747 37,975 4 370 0
2017-10-19 12:58:55 GMT 39.44283 -3.49841 37,975 4 370 0
2017-10-19 12:58:53 GMT 39.43598 -3.49908 37,975 4 370 0
2017-10-19 12:58:44 GMT 39.42471 -3.50022 37,975 4 370 0
2017-10-19 12:58:42 GMT 39.41721 -3.50100 37,975 4 371 0
2017-10-19 12:58:34 GMT 39.40731 -3.50195 37,975 4 371 -64
2017-10-19 12:58:30 GMT 39.39738 -3.50297 37,975 4 371 -64
2017-10-19 12:58:24 GMT 39.38952 -3.50378 37,975 4 371 -64
2017-10-19 12:58:20 GMT 39.37928 -3.50476 37,975 4 371 0
2017-10-19 12:58:15 GMT 39.37344 -3.50529 38,000 4 371 0
2017-10-19 12:58:13 GMT 39.37174 -3.50549 37,975 4 371 64
2017-10-19 12:58:09 GMT 39.36049 -3.50655 37,975 4 371 64
2017-10-19 12:58:03 GMT 39.35362 -3.50727 37,975 4 371 64
2017-10-19 12:57:56 GMT 39.33822 -3.50879 37,975 4 372 -128
2017-10-19 12:57:54 GMT 39.33822 -3.50879 37,975 4 372 -128
2017-10-19 12:57:52 GMT 39.33581 -3.50900 37,975 4 372 -128
2017-10-19 12:57:47 GMT 39.32309 -3.51025 38,000 4 372 0
2017-10-19 12:57:44 GMT 39.32071 -3.51049 38,000 4 372 0
2017-10-19 12:57:42 GMT 39.31796 -3.51079 38,000 4 372 0
2017-10-19 12:57:34 GMT 39.30252 -3.51233 37,975 4 372 -64
2017-10-19 12:57:32 GMT 39.30080 -3.51252 37,975 4 372 -64
2017-10-19 12:57:23 GMT 39.28500 -3.51407 38,000 4 373 -64
2017-10-19 12:57:21 GMT 39.28259 -3.51428 38,000 4 373 -64
2017-10-19 12:57:13 GMT 39.26573 -3.51598 38,000 4 373 0
2017-10-19 12:57:11 GMT 39.26472 -3.51611 38,000 4 373 0
2017-10-19 12:57:01 GMT 39.24719 -3.51783 38,000 4 373 0
2017-10-19 12:56:53 GMT 39.23273 -3.51921 38,000 4 373 0
2017-10-19 12:56:50 GMT 39.22861 -3.51962 38,000 4 373 0
2017-10-19 12:56:42 GMT 39.21414 -3.52106 38,000 4 374 0
2017-10-19 12:56:40 GMT 39.21066 -3.52142 38,000 4 374 0
2017-10-19 12:56:35 GMT 39.20066 -3.52240 38,000 4 374 -64
2017-10-19 12:56:32 GMT 39.19688 -3.52279 38,000 4 375 -64
2017-10-19 12:56:29 GMT 39.19272 -3.52321 38,000 4 375 -64
2017-10-19 12:56:23 GMT 39.18269 -3.52423 38,000 4 375 0
2017-10-19 12:56:21 GMT 39.17889 -3.52458 38,000 4 375 0
2017-10-19 12:56:19 GMT 39.17511 -3.52496 38,000 4 375 0
2017-10-19 12:56:10 GMT 39.16022 -3.52649 38,000 4 375 0
2017-10-19 12:56:08 GMT 39.15189 -3.52733 38,000 4 375 0
2017-10-19 12:56:03 GMT 39.14708 -3.52780 38,000 4 376 0
2017-10-19 12:56:01 GMT 39.14360 -3.52816 38,000 4 376 128
2017-10-19 12:55:59 GMT 39.14012 -3.52852 38,000 4 376 64
2017-10-19 12:55:54 GMT 39.12763 -3.52978 38,000 4 377 0
2017-10-19 12:55:51 GMT 39.12590 -3.52997 38,000 4 377 0
2017-10-19 12:55:48 GMT 39.12176 -3.53040 38,000 4 377 0
2017-10-19 12:55:46 GMT 39.11407 -3.53119 38,000 4 377 -64
2017-10-19 12:55:41 GMT 39.10784 -3.53186 38,000 4 378 0
2017-10-19 12:55:38 GMT 39.10400 -3.53222 38,000 4 378 -64
2017-10-19 12:55:29 GMT 39.08763 -3.53394 38,000 4 377 -64
2017-10-19 12:55:27 GMT 39.08554 -3.53412 38,000 4 377 -64
2017-10-19 12:55:23 GMT 39.07651 -3.53503 38,000 5 376 -64
2017-10-19 12:55:19 GMT 39.07063 -3.53569 38,000 4 376 0
2017-10-19 12:55:17 GMT 39.06822 -3.53595 38,000 5 376 -64
2017-10-19 12:55:10 GMT 39.05402 -3.53784 38,000 7 376 0
2017-10-19 12:55:07 GMT 39.04985 -3.53849 38,000 7 377 64
2017-10-19 12:55:02 GMT 39.03847 -3.54059 38,000 9 378 0
2017-10-19 12:54:58 GMT 39.03498 -3.54126 38,000 9 377 0
2017-10-19 12:54:56 GMT 39.03154 -3.54205 38,000 10 378 0
2017-10-19 12:54:51 GMT 39.01915 -3.54504 38,000 11 379 0
2017-10-19 12:54:49 GMT 39.01846 -3.54523 38,000 11 379 0
2017-10-19 12:54:46 GMT 39.01401 -3.54643 38,000 12 379 0
2017-10-19 12:54:39 GMT 38.99963 -3.55079 38,000 14 380 0
2017-10-19 12:54:35 GMT 38.99588 -3.55206 38,000 14 381 0
2017-10-19 12:54:28 GMT 38.98294 -3.55670 38,000 16 382 0
2017-10-19 12:54:25 GMT 38.97889 -3.55829 38,000 17 383 0
2017-10-19 12:54:18 GMT 38.96604 -3.56360 38,000 19 384 64
2017-10-19 12:54:14 GMT 38.95967 -3.56644 38,000 19 385 64
2017-10-19 12:54:07 GMT 38.94832 -3.57187 38,000 21 387 0
2017-10-19 12:54:05 GMT 38.94429 -3.57390 38,000 22 388 64
2017-10-19 12:53:57 GMT 38.93102 -3.58101 37,975 23 389 256
2017-10-19 12:53:54 GMT 38.92675 -3.58344 37,975 23 389 384
2017-10-19 12:53:47 GMT 38.91454 -3.59020 37,900 23 389 704
2017-10-19 12:53:44 GMT 38.90957 -3.59302 37,875 23 389 640
2017-10-19 12:53:43 GMT 38.90827 -3.59375 37,875 23 389 640
2017-10-19 12:53:36 GMT 38.89668 -3.60023 37,775 23 391 832
2017-10-19 12:53:34 GMT 38.89270 -3.60250 37,750 23 391 896
2017-10-19 12:53:31 GMT 38.88670 -3.60584 37,700 23 393 896
2017-10-19 12:53:27 GMT 38.88043 -3.60944 37,650 23 393 832
2017-10-19 12:53:23 GMT 38.87540 -3.61223 37,600 23 394 768
2017-10-19 12:53:21 GMT 38.87073 -3.61480 37,575 23 394 512
2017-10-19 12:53:15 GMT 38.86203 -3.61970 37,500 23 394 512
2017-10-19 12:53:13 GMT 38.85836 -3.62170 37,500 23 394 512
2017-10-19 12:53:06 GMT 38.84430 -3.62958 37,425 23 394 576
2017-10-19 12:53:03 GMT 38.84095 -3.63141 37,400 23 394 576
2017-10-19 12:52:56 GMT 38.82925 -3.63797 37,325 23 394 704
2017-10-19 12:52:54 GMT 38.82624 -3.63965 37,300 23 394 704
2017-10-19 12:52:52 GMT 38.82390 -3.64095 37,275 23 394 704
2017-10-19 12:52:47 GMT 38.81349 -3.64673 37,200 23 395 768
2017-10-19 12:52:44 GMT 38.80980 -3.64878 37,175 23 395 768
2017-10-19 12:52:41 GMT 38.80508 -3.65140 37,150 23 395 832
2017-10-19 12:52:38 GMT 38.79501 -3.65701 37,050 23 395 832
2017-10-19 12:52:34 GMT 38.79333 -3.65790 37,050 23 395 896
2017-10-19 12:52:30 GMT 38.78696 -3.66149 37,000 23 396 832
2017-10-19 12:52:26 GMT 38.77718 -3.66687 36,900 23 396 832
2017-10-19 12:52:24 GMT 38.77551 -3.66782 36,900 23 396 832
2017-10-19 12:52:20 GMT 38.76912 -3.67139 36,850 23 396 768
2017-10-19 12:52:15 GMT 38.75935 -3.67678 36,775 23 396 768
2017-10-19 12:52:13 GMT 38.75767 -3.67773 36,750 23 396 768
2017-10-19 12:52:10 GMT 38.75263 -3.68054 36,725 23 396 704
2017-10-19 12:52:03 GMT 38.74152 -3.68671 36,625 23 396 640
2017-10-19 12:52:00 GMT 38.73542 -3.69006 36,600 23 396 576
2017-10-19 12:51:54 GMT 38.72434 -3.69618 36,550 23 395 576
2017-10-19 12:51:49 GMT 38.71692 -3.70030 36,500 23 395 576
2017-10-19 12:51:42 GMT 38.70621 -3.70621 36,425 23 395 576
2017-10-19 12:51:39 GMT 38.70016 -3.70956 36,400 23 395 576
2017-10-19 12:51:33 GMT 38.69009 -3.71511 36,350 23 394 640
2017-10-19 12:51:29 GMT 38.68370 -3.71863 36,300 23 394 640
2017-10-19 12:51:22 GMT 38.66995 -3.72622 36,225 23 394 512
2017-10-19 12:51:18 GMT 38.66629 -3.72827 36,200 23 394 448
2017-10-19 12:51:12 GMT 38.65521 -3.73434 36,150 23 394 384
2017-10-19 12:51:08 GMT 38.64789 -3.73840 36,125 23 393 448
2017-10-19 12:51:00 GMT 38.63585 -3.74497 36,075 23 392 640
2017-10-19 12:50:57 GMT 38.63086 -3.74774 36,025 23 392 832
2017-10-19 12:50:52 GMT 38.62120 -3.75308 35,950 23 392 768
2017-10-19 12:50:46 GMT 38.61289 -3.75769 35,900 23 392 640
2017-10-19 12:50:40 GMT 38.60252 -3.76341 35,825 23 392 512
2017-10-19 12:50:33 GMT 38.59087 -3.76984 35,775 23 391 448
2017-10-19 12:50:30 GMT 38.58591 -3.77261 35,750 23 391 448
2017-10-19 12:50:25 GMT 38.57263 -3.77995 35,675 23 390 640
2017-10-19 12:50:25 GMT 38.57695 -3.77759 35,700 23 391 576
2017-10-19 12:50:20 GMT 38.56834 -3.78235 35,650 23 390 704
2017-10-19 12:50:13 GMT 38.55708 -3.78857 35,575 23 390 704
2017-10-19 12:50:11 GMT 38.55208 -3.79130 35,525 23 390 704
2017-10-19 12:50:05 GMT 38.54316 -3.79620 35,475 23 390 576
2017-10-19 12:50:02 GMT 38.53551 -3.80037 35,425 23 389 640
2017-10-19 12:49:59 GMT 38.53385 -3.80133 35,425 23 389 640
2017-10-19 12:49:54 GMT 38.52557 -3.80587 35,375 23 389 384
2017-10-19 12:49:52 GMT 38.51765 -3.81017 35,350 23 387 128
2017-10-19 12:49:49 GMT 38.51765 -3.81017 35,350 23 387 128
2017-10-19 12:49:41 GMT 38.50122 -3.81918 35,325 23 385 448
2017-10-19 12:49:39 GMT 38.49959 -3.82007 35,325 23 385 384
2017-10-19 12:49:29 GMT 38.48390 -3.82874 35,200 23 384 1408
2017-10-19 12:49:23 GMT 38.47407 -3.83411 35,050 23 386 1408
2017-10-19 12:49:18 GMT 38.46391 -3.83972 34,925 23 387 1024
2017-10-19 12:49:18 GMT 38.46686 -3.83807 34,950 23 386 1280
2017-10-19 12:49:08 GMT 38.44611 -3.84945 34,750 23 387 768
2017-10-19 12:49:02 GMT 38.44020 -3.85274 34,700 23 387 768
2017-10-19 12:48:56 GMT 38.42766 -3.85954 34,600 23 387 960
2017-10-19 12:48:52 GMT 38.42338 -3.86194 34,550 23 387 960
2017-10-19 12:48:47 GMT 38.41649 -3.86570 34,500 23 387 1024
2017-10-19 12:48:45 GMT 38.40926 -3.86970 34,425 23 387 1024
2017-10-19 12:48:40 GMT 38.40399 -3.87256 34,375 23 387 1024
2017-10-19 12:48:36 GMT 38.39740 -3.87619 34,300 23 388 1024
2017-10-19 12:48:33 GMT 38.38879 -3.88086 34,200 23 388 1024
2017-10-19 12:48:30 GMT 38.38781 -3.88140 34,200 23 388 1024
2017-10-19 12:48:27 GMT 38.38186 -3.88468 34,125 23 388 1152
2017-10-19 12:48:22 GMT 38.37295 -3.88957 34,025 23 389 1280
2017-10-19 12:48:20 GMT 38.37163 -3.89027 34,025 23 389 1280
2017-10-19 12:48:14 GMT 38.36037 -3.89647 33,875 23 389 1408
2017-10-19 12:48:12 GMT 38.35506 -3.89933 33,800 23 391 1536
2017-10-19 12:48:09 GMT 38.35206 -3.90098 33,750 23 391 1536
2017-10-19 12:48:04 GMT 38.34405 -3.90534 33,625 23 392 1536
2017-10-19 12:47:59 GMT 38.33638 -3.90956 33,525 23 394 1472
2017-10-19 12:47:56 GMT 38.32865 -3.91382 33,400 23 395 1216
2017-10-19 12:47:49 GMT 38.31994 -3.91860 33,300 23 395 1024
2017-10-19 12:47:44 GMT 38.31189 -3.92295 33,225 23 395 960
2017-10-19 12:47:39 GMT 38.30183 -3.92851 33,150 23 395 832
2017-10-19 12:47:38 GMT 38.29747 -3.93088 33,100 23 393 512
2017-10-19 12:47:28 GMT 38.28003 -3.94029 33,000 23 392 576
2017-10-19 12:47:20 GMT 38.27036 -3.94558 32,925 23 391 1088
2017-10-19 12:47:18 GMT 38.26771 -3.94702 32,900 23 391 1280
2017-10-19 12:47:15 GMT 38.25770 -3.95245 32,775 23 391 1600
2017-10-19 12:47:08 GMT 38.25005 -3.95666 32,625 23 394 2432
2017-10-19 12:47:05 GMT 38.24199 -3.96104 32,425 23 397 2304
2017-10-19 12:46:57 GMT 38.23224 -3.96642 32,200 23 398 2048
2017-10-19 12:46:49 GMT 38.21860 -3.97389 31,975 23 401 1728
2017-10-19 12:46:47 GMT 38.21520 -3.97574 31,900 23 401 1664
2017-10-19 12:46:37 GMT 38.19772 -3.98523 31,650 23 404 1472
2017-10-19 12:46:26 GMT 38.17987 -3.99499 31,400 23 404 1280
2017-10-19 12:46:19 GMT 38.16673 -4.00218 31,250 23 405 1152
2017-10-19 12:46:14 GMT 38.15918 -4.00627 31,175 23 405 1216
2017-10-19 12:46:09 GMT 38.14536 -4.01375 31,000 23 405 1024
2017-10-19 12:46:04 GMT 38.14119 -4.01603 30,950 23 405 1088
2017-10-19 12:45:48 GMT 38.11285 -4.03140 30,650 23 406 1408
2017-10-19 12:45:44 GMT 38.10594 -4.03514 30,550 23 406 1408
2017-10-19 12:45:42 GMT 38.10352 -4.03646 30,525 23 409 1152
2017-10-19 12:45:33 GMT 38.08722 -4.04531 30,300 23 409 1344
2017-10-19 12:45:24 GMT 38.07120 -4.05401 30,100 23 409 1152
2017-10-19 12:45:18 GMT 38.06111 -4.05951 30,000 23 409 1280
2017-10-19 12:45:13 GMT 38.05376 -4.06348 29,900 23 409 1280
2017-10-19 12:45:02 GMT 38.03352 -4.07441 29,650 23 410 1408
2017-10-19 12:44:53 GMT 38.01707 -4.08333 29,425 23 412 1600
2017-10-19 12:44:47 GMT 38.00761 -4.08843 29,275 23 412 1920
2017-10-19 12:44:41 GMT 37.99709 -4.09416 29,075 23 414 1920
2017-10-19 12:44:32 GMT 37.98010 -4.10328 28,825 23 416 1152
2017-10-19 12:44:23 GMT 37.96454 -4.11169 28,675 23 415 1088
2017-10-19 12:44:21 GMT 37.96205 -4.11307 28,650 23 415 1152
2017-10-19 12:44:16 GMT 37.95288 -4.11802 28,550 23 415 1536
2017-10-19 12:44:11 GMT 37.94330 -4.12315 28,400 23 416 1792
2017-10-19 12:44:07 GMT 37.93370 -4.12835 28,250 23 417 1664
2017-10-19 12:43:59 GMT 37.92270 -4.13425 28,100 23 418 1408
2017-10-19 12:43:45 GMT 37.89813 -4.14752 27,850 23 417 1088
2017-10-19 12:43:28 GMT 37.86722 -4.16417 27,525 23 417 1088
2017-10-19 12:43:19 GMT 37.85088 -4.17293 27,350 23 416 1344
2017-10-19 12:43:14 GMT 37.84026 -4.17872 27,225 23 416 1536
2017-10-19 12:43:00 GMT 37.81750 -4.19093 26,900 23 417 1344
2017-10-19 12:42:56 GMT 37.81041 -4.19479 26,825 23 417 1216
2017-10-19 12:42:44 GMT 37.78976 -4.20584 26,600 23 416 1024
2017-10-19 12:42:29 GMT 37.76327 -4.22012 26,350 23 414 1280
2017-10-19 12:42:14 GMT 37.73607 -4.23476 26,000 23 414 1408
2017-10-19 12:41:58 GMT 37.70899 -4.24932 25,675 23 413 1152
2017-10-19 12:41:43 GMT 37.68201 -4.26386 25,375 23 409 1472
2017-10-19 12:41:34 GMT 37.66421 -4.27338 25,125 22 409 1536
2017-10-19 12:41:29 GMT 37.65652 -4.27750 25,025 22 409 1728
2017-10-19 12:41:19 GMT 37.63870 -4.28700 24,750 22 409 1728
2017-10-19 12:41:13 GMT 37.62929 -4.29207 24,600 23 409 1728
2017-10-19 12:41:09 GMT 37.61672 -4.29882 24,400 23 409 1664
2017-10-19 12:41:00 GMT 37.60550 -4.30479 24,225 23 409 1728
2017-10-19 12:40:50 GMT 37.58944 -4.31339 23,975 23 410 1728
2017-10-19 12:40:44 GMT 37.57860 -4.31921 23,800 23 410 1920
2017-10-19 12:40:38 GMT 37.56811 -4.32482 23,625 23 410 1792
2017-10-19 12:40:36 GMT 37.56107 -4.32855 23,500 23 411 1664
2017-10-19 12:40:31 GMT 37.55617 -4.33118 23,425 23 411 1664
2017-10-19 12:40:24 GMT 37.54252 -4.33852 23,225 23 411 1664
2017-10-19 12:40:22 GMT 37.53937 -4.34018 23,175 23 411 1664
2017-10-19 12:40:17 GMT 37.53163 -4.34433 23,050 23 410 1600
2017-10-19 12:40:12 GMT 37.52184 -4.34959 22,925 23 410 1472
2017-10-19 12:40:10 GMT 37.51729 -4.35202 22,875 22 410 1472
2017-10-19 12:40:01 GMT 37.50332 -4.35942 22,700 22 409 1152
2017-10-19 12:39:59 GMT 37.49983 -4.36127 22,650 23 404 1536
2017-10-19 12:39:53 GMT 37.48901 -4.36701 22,550 22 406 1024
2017-10-19 12:39:51 GMT 37.48521 -4.36904 22,525 22 406 1088
2017-10-19 12:39:42 GMT 37.47038 -4.37694 22,350 23 404 1408
2017-10-19 12:39:40 GMT 37.46626 -4.37910 22,300 23 403 1600
2017-10-19 12:39:33 GMT 37.45317 -4.38606 22,075 22 402 1920
2017-10-19 12:39:30 GMT 37.44974 -4.38793 22,025 22 402 1792
2017-10-19 12:39:22 GMT 37.43601 -4.39523 21,800 22 402 1664
2017-10-19 12:39:19 GMT 37.43120 -4.39774 21,725 22 401 1664
2017-10-19 12:39:09 GMT 37.41375 -4.40701 21,425 23 401 1984
2017-10-19 12:39:02 GMT 37.40077 -4.41394 21,150 22 401 2304
2017-10-19 12:38:59 GMT 37.39732 -4.41579 21,100 22 401 2240
2017-10-19 12:38:52 GMT 37.38327 -4.42328 20,800 23 402 2048
2017-10-19 12:38:48 GMT 37.37814 -4.42606 20,700 23 402 2048
2017-10-19 12:38:41 GMT 37.36478 -4.43316 20,450 23 402 1792
2017-10-19 12:38:39 GMT 37.36166 -4.43483 20,400 22 401 1792
2017-10-19 12:38:35 GMT 37.35552 -4.43812 20,300 23 401 1664
2017-10-19 12:38:29 GMT 37.34458 -4.44391 20,150 22 399 1664
2017-10-19 12:38:27 GMT 37.34084 -4.44590 20,075 22 399 1536
2017-10-19 12:38:17 GMT 37.32317 -4.45531 19,875 22 395 832
2017-10-19 12:38:08 GMT 37.30907 -4.46279 19,750 22 392 1344
2017-10-19 12:38:04 GMT 37.30243 -4.46629 19,650 22 390 1600
2017-10-19 12:37:56 GMT 37.28881 -4.47353 19,400 22 388 2368
2017-10-19 12:37:47 GMT 37.27549 -4.48051 19,100 22 389 1920
2017-10-19 12:37:45 GMT 37.27116 -4.48277 19,000 22 389 1792
2017-10-19 12:37:39 GMT 37.26158 -4.48785 18,850 22 387 1344
2017-10-19 12:37:35 GMT 37.25464 -4.49148 18,775 22 385 1216
2017-10-19 12:37:27 GMT 37.24155 -4.49838 18,600 22 380 1408
2017-10-19 12:37:25 GMT 37.23766 -4.50042 18,550 22 380 1408
2017-10-19 12:37:17 GMT 37.22503 -4.50702 18,350 22 377 2240
2017-10-19 12:37:14 GMT 37.21991 -4.50977 18,225 22 377 2304
2017-10-19 12:37:09 GMT 37.21248 -4.51369 18,050 22 377 2944
2017-10-19 12:37:05 GMT 37.20506 -4.51759 17,825 22 379 3328
2017-10-19 12:36:58 GMT 37.19407 -4.52350 17,425 23 381 3712
2017-10-19 12:36:55 GMT 37.18785 -4.52678 17,225 23 388 3200
2017-10-19 12:36:49 GMT 37.17829 -4.53186 16,900 23 388 3072
2017-10-19 12:36:43 GMT 37.17103 -4.53574 16,675 23 388 2752
2017-10-19 12:36:38 GMT 37.16139 -4.54080 16,450 22 388 1984
2017-10-19 12:36:35 GMT 37.15741 -4.54291 16,375 22 388 1984
2017-10-19 12:36:32 GMT 37.15210 -4.54571 16,275 22 388 1984
2017-10-19 12:36:28 GMT 37.14482 -4.54957 16,125 22 386 2048
2017-10-19 12:36:23 GMT 37.13754 -4.55337 15,975 22 385 1984
2017-10-19 12:36:18 GMT 37.12345 -4.56082 15,725 22 383 1728
2017-10-19 12:36:14 GMT 37.12116 -4.56201 15,675 22 382 1792
2017-10-19 12:36:08 GMT 37.11205 -4.56681 15,500 22 380 1920
2017-10-19 12:36:05 GMT 37.10781 -4.56906 15,425 22 380 2112
2017-10-19 12:36:03 GMT 37.10395 -4.57109 15,350 22 379 2176
2017-10-19 12:35:54 GMT 37.09007 -4.57843 15,050 22 376 2112
2017-10-19 12:35:43 GMT 37.07336 -4.58726 14,700 22 374 1920
2017-10-19 12:35:41 GMT 37.06922 -4.58948 14,625 22 373 1920
2017-10-19 12:35:36 GMT 37.06187 -4.59334 14,475 22 372 2048
2017-10-19 12:35:32 GMT 37.05492 -4.59702 14,325 22 371 2176
2017-10-19 12:35:23 GMT 37.04069 -4.60452 14,025 22 369 1792
2017-10-19 12:35:21 GMT 37.03757 -4.60620 13,975 22 367 1664
2017-10-19 12:35:13 GMT 37.02504 -4.61276 13,775 22 363 1024
2017-10-19 12:35:13 GMT 37.02444 -4.61312 13,775 22 362 960
2017-10-19 12:35:05 GMT 37.01275 -4.61921 13,675 22 348 896
2017-10-19 12:35:02 GMT 37.00882 -4.62127 13,650 22 352 832
2017-10-19 12:35:01 GMT 37.00670 -4.62238 13,625 22 351 832
2017-10-19 12:34:58 GMT 37.00044 -4.62565 13,575 22 348 896
2017-10-19 12:34:52 GMT 36.99367 -4.62918 13,500 22 342 960
2017-10-19 12:34:50 GMT 36.99042 -4.63085 13,475 22 340 960
2017-10-19 12:34:42 GMT 36.97893 -4.63682 13,350 22 330 1024
2017-10-19 12:34:40 GMT 36.97609 -4.63828 13,300 22 328 1088
2017-10-19 12:34:32 GMT 36.96466 -4.64405 13,175 21 319 1152
2017-10-19 12:34:30 GMT 36.96167 -4.64558 13,125 21 317 1152
2017-10-19 12:34:21 GMT 36.95027 -4.65090 12,975 17 305 1024
2017-10-19 12:34:19 GMT 36.94757 -4.65195 12,925 16 304 1024
2017-10-19 12:34:11 GMT 36.93631 -4.65464 12,800 5 287 1088
2017-10-19 12:34:01 GMT 36.92361 -4.65432 12,575 351 270 2048
2017-10-19 12:33:50 GMT 36.91113 -4.65056 12,175 342 262 2816
2017-10-19 12:33:40 GMT 36.89900 -4.64529 11,675 341 260 3072
2017-10-19 12:33:30 GMT 36.88756 -4.64032 11,200 341 260 2944
2017-10-19 12:33:26 GMT 36.88303 -4.63839 11,000 341 259 3072
2017-10-19 12:33:20 GMT 36.87575 -4.63524 10,675 341 259 3072
2017-10-19 12:33:15 GMT 36.86984 -4.63267 10,400 341 259 3008
2017-10-19 12:33:08 GMT 36.86192 -4.62925 10,075 341 257 3072
2017-10-19 12:32:59 GMT 36.85272 -4.62524 9,625 341 256 3712
2017-10-19 12:32:48 GMT 36.83949 -4.61952 8,900 341 257 3904
2017-10-19 12:32:39 GMT 36.82952 -4.61525 8,350 341 259 3456
2017-10-19 12:32:37 GMT 36.82750 -4.61432 8,250 341 258 3456
2017-10-19 12:32:28 GMT 36.81779 -4.61017 7,750 341 257 3392
2017-10-19 12:32:18 GMT 36.80606 -4.60514 7,200 342 255 3584
2017-10-19 12:32:08 GMT 36.79509 -4.60047 6,575 342 255 3968
2017-10-19 12:31:58 GMT 36.78358 -4.59556 5,900 342 257 3840
2017-10-19 12:31:47 GMT 36.77180 -4.59065 5,300 342 257 3200
2017-10-19 12:31:35 GMT 36.75819 -4.58507 4,750 343 236 1728
2017-10-19 12:31:14 GMT 36.73636 -4.57626 4,150 341 220 1536
2017-10-19 12:30:26 GMT 36.70647 -4.54376 2,800 312 160 2880
2017-10-19 12:30:23 GMT 36.70505 -4.54182 2,675 312 162 2816

Making use of Plane Finder data

You are free to use the raw flight data, aircraft information and images provided in this report for your own purposes provided the data is correctly attributed to Plane Finder. We ask that you please credit Plane Finder and link to planefinder.net in close proximity to the content.

Optionally one of the following logos (no smaller then 150x24px) can be used and must link to planefinder.net

Embedding the Plane Finder map

You are welcome to embed the Plane Finder playback map on your website to offer visitors a more interactive experience. We suggest using the following HTML code:

<iframe src="//planefinder.net/data/report/BA2715-G-EUYI-7700-squawk-2017-10-19/map" width="800" height="600" seamless="seamless"></iframe>

Where our data comes from

Plane Finder has a global network of data feeds and antenna radars that receive data broadcast directly from aircraft. The primary technologies used are ADS-B and MLAT. We also show feeds from the FAA and a FLARM glider feed.

Click here to find out more about the Plane Finder network.

How we collect our data